<?xml version="1.0" encoding="utf-8"?>
<gpx xmlns:xsi="http://www.w3.org/2001/XMLSchema-instance" xmlns:xsd="http://www.w3.org/2001/XMLSchema" version="1.1" creator="Shapelink.com" xmlns="http://www.topografix.com/GPX/1/1" xmlns:gpxtpx="http://www.garmin.com/xmlschemas/TrackPointExtension/v1">
  <metadata>
    <name>Løping 9.88 km, 2014-06-27</name>
    <desc></desc>
    <author><name>Dennis Rehn</name></author> 
    <time>2014-06-27T14:07:29Z</time>
  </metadata>
  <trk>
    <name>Løping 9.88 km, 2014-06-27</name>
    <trkseg>
      <trkpt lat="59.969328572551" lon="23.437109783223">
        <ele>0</ele>
        <time>2014-06-27T14:07:29Z</time>
      </trkpt>
      <trkpt lat="59.96925741022" lon="23.437151776542">
        <ele>0</ele>
        <time>2014-06-27T14:07:35Z</time>
      </trkpt>
      <trkpt lat="59.969238467126" lon="23.437153536741">
        <ele>0</ele>
        <time>2014-06-27T14:07:36Z</time>
      </trkpt>
      <trkpt lat="59.969180799654" lon="23.437150100162">
        <ele>0</ele>
        <time>2014-06-27T14:07:39Z</time>
      </trkpt>
      <trkpt lat="59.968877961607" lon="23.437059408004">
        <ele>3.6</ele>
        <time>2014-06-27T14:07:54Z</time>
      </trkpt>
      <trkpt lat="59.968795483711" lon="23.437007104948">
        <ele>4.8</ele>
        <time>2014-06-27T14:07:58Z</time>
      </trkpt>
      <trkpt lat="59.968783665232" lon="23.436999812695">
        <ele>5</ele>
        <time>2014-06-27T14:07:59Z</time>
      </trkpt>
      <trkpt lat="59.968669336116" lon="23.436841897699">
        <ele>6</ele>
        <time>2014-06-27T14:08:05Z</time>
      </trkpt>
      <trkpt lat="59.968642597855" lon="23.436808537737">
        <ele>6.6</ele>
        <time>2014-06-27T14:08:07Z</time>
      </trkpt>
      <trkpt lat="59.968616530146" lon="23.436799317647">
        <ele>7</ele>
        <time>2014-06-27T14:08:09Z</time>
      </trkpt>
      <trkpt lat="59.968544361987" lon="23.436734274103">
        <ele>7.6</ele>
        <time>2014-06-27T14:08:12Z</time>
      </trkpt>
      <trkpt lat="59.968404803352" lon="23.43659454783">
        <ele>8.2</ele>
        <time>2014-06-27T14:08:18Z</time>
      </trkpt>
      <trkpt lat="59.96825242041" lon="23.436430765504">
        <ele>9</ele>
        <time>2014-06-27T14:08:25Z</time>
      </trkpt>
      <trkpt lat="59.968090733559" lon="23.43628944667">
        <ele>10</ele>
        <time>2014-06-27T14:08:29Z</time>
      </trkpt>
      <trkpt lat="59.968008926215" lon="23.436191965173">
        <ele>10.2</ele>
        <time>2014-06-27T14:08:32Z</time>
      </trkpt>
      <trkpt lat="59.967890238511" lon="23.43604972433">
        <ele>10.6</ele>
        <time>2014-06-27T14:08:37Z</time>
      </trkpt>
      <trkpt lat="59.967829888831" lon="23.435961295285">
        <ele>10.8</ele>
        <time>2014-06-27T14:08:40Z</time>
      </trkpt>
      <trkpt lat="59.967641715176" lon="23.435712604312">
        <ele>11</ele>
        <time>2014-06-27T14:08:49Z</time>
      </trkpt>
      <trkpt lat="59.967488996958" lon="23.435425608056">
        <ele>11.2</ele>
        <time>2014-06-27T14:08:57Z</time>
      </trkpt>
      <trkpt lat="59.967358574594" lon="23.435301304479">
        <ele>11.2</ele>
        <time>2014-06-27T14:09:02Z</time>
      </trkpt>
      <trkpt lat="59.967267463341" lon="23.435172642314">
        <ele>11.2</ele>
        <time>2014-06-27T14:09:06Z</time>
      </trkpt>
      <trkpt lat="59.967142070117" lon="23.435003076477">
        <ele>11.2</ele>
        <time>2014-06-27T14:09:10Z</time>
      </trkpt>
      <trkpt lat="59.967063447895" lon="23.434843149825">
        <ele>11.2</ele>
        <time>2014-06-27T14:09:14Z</time>
      </trkpt>
      <trkpt lat="59.966970408805" lon="23.434691688892">
        <ele>11.2</ele>
        <time>2014-06-27T14:09:18Z</time>
      </trkpt>
      <trkpt lat="59.966893295325" lon="23.434605103865">
        <ele>11.2</ele>
        <time>2014-06-27T14:09:22Z</time>
      </trkpt>
      <trkpt lat="59.966870328919" lon="23.434580041984">
        <ele>11.2</ele>
        <time>2014-06-27T14:09:23Z</time>
      </trkpt>
      <trkpt lat="59.966761448038" lon="23.434492032034">
        <ele>11.2</ele>
        <time>2014-06-27T14:09:28Z</time>
      </trkpt>
      <trkpt lat="59.966713252113" lon="23.434447524145">
        <ele>11.2</ele>
        <time>2014-06-27T14:09:30Z</time>
      </trkpt>
      <trkpt lat="59.966572100917" lon="23.434277958308">
        <ele>11.2</ele>
        <time>2014-06-27T14:09:37Z</time>
      </trkpt>
      <trkpt lat="59.966445534227" lon="23.43413697475">
        <ele>11.2</ele>
        <time>2014-06-27T14:09:41Z</time>
      </trkpt>
      <trkpt lat="59.966362050503" lon="23.434059777451">
        <ele>11.2</ele>
        <time>2014-06-27T14:09:45Z</time>
      </trkpt>
      <trkpt lat="59.966230873768" lon="23.433916782237">
        <ele>11.2</ele>
        <time>2014-06-27T14:09:48Z</time>
      </trkpt>
      <trkpt lat="59.966153844107" lon="23.433834723436">
        <ele>11.2</ele>
        <time>2014-06-27T14:09:50Z</time>
      </trkpt>
      <trkpt lat="59.965955947448" lon="23.433400373378">
        <ele>11.2</ele>
        <time>2014-06-27T14:09:59Z</time>
      </trkpt>
      <trkpt lat="59.965891322999" lon="23.433172134241">
        <ele>11.2</ele>
        <time>2014-06-27T14:10:03Z</time>
      </trkpt>
      <trkpt lat="59.965872966638" lon="23.433122261936">
        <ele>11.2</ele>
        <time>2014-06-27T14:10:05Z</time>
      </trkpt>
      <trkpt lat="59.965794428235" lon="23.433004496241">
        <ele>11.2</ele>
        <time>2014-06-27T14:10:07Z</time>
      </trkpt>
      <trkpt lat="59.965620419991" lon="23.432787740307">
        <ele>11.2</ele>
        <time>2014-06-27T14:10:13Z</time>
      </trkpt>
      <trkpt lat="59.965492931292" lon="23.432564111215">
        <ele>11.2</ele>
        <time>2014-06-27T14:10:18Z</time>
      </trkpt>
      <trkpt lat="59.965387570809" lon="23.432325478522">
        <ele>11.2</ele>
        <time>2014-06-27T14:10:23Z</time>
      </trkpt>
      <trkpt lat="59.96529109514" lon="23.432065555803">
        <ele>11.2</ele>
        <time>2014-06-27T14:10:27Z</time>
      </trkpt>
      <trkpt lat="59.965191937263" lon="23.431847794041">
        <ele>11.2</ele>
        <time>2014-06-27T14:10:30Z</time>
      </trkpt>
      <trkpt lat="59.965178107128" lon="23.431775961158">
        <ele>11.2</ele>
        <time>2014-06-27T14:10:32Z</time>
      </trkpt>
      <trkpt lat="59.965194451833" lon="23.431553337894">
        <ele>11.2</ele>
        <time>2014-06-27T14:10:35Z</time>
      </trkpt>
      <trkpt lat="59.965188249227" lon="23.431494413137">
        <ele>11.2</ele>
        <time>2014-06-27T14:10:36Z</time>
      </trkpt>
      <trkpt lat="59.965089510445" lon="23.430834589969">
        <ele>11.2</ele>
        <time>2014-06-27T14:10:46Z</time>
      </trkpt>
      <trkpt lat="59.965046762755" lon="23.430349948511">
        <ele>12.4</ele>
        <time>2014-06-27T14:10:55Z</time>
      </trkpt>
      <trkpt lat="59.965095126318" lon="23.429979803807">
        <ele>13</ele>
        <time>2014-06-27T14:11:03Z</time>
      </trkpt>
      <trkpt lat="59.965132006678" lon="23.429708230247">
        <ele>13.6</ele>
        <time>2014-06-27T14:11:08Z</time>
      </trkpt>
      <trkpt lat="59.965165701916" lon="23.429434812669">
        <ele>14.4</ele>
        <time>2014-06-27T14:11:13Z</time>
      </trkpt>
      <trkpt lat="59.965203001371" lon="23.429198023994">
        <ele>14.8</ele>
        <time>2014-06-27T14:11:17Z</time>
      </trkpt>
      <trkpt lat="59.965216077135" lon="23.428919158181">
        <ele>15</ele>
        <time>2014-06-27T14:11:21Z</time>
      </trkpt>
      <trkpt lat="59.965238875903" lon="23.428573488625">
        <ele>15.2</ele>
        <time>2014-06-27T14:11:27Z</time>
      </trkpt>
      <trkpt lat="59.965219681352" lon="23.428326893127">
        <ele>15.2</ele>
        <time>2014-06-27T14:11:33Z</time>
      </trkpt>
      <trkpt lat="59.965214065479" lon="23.428110556288">
        <ele>15.4</ele>
        <time>2014-06-27T14:11:37Z</time>
      </trkpt>
      <trkpt lat="59.96520140881" lon="23.427899500046">
        <ele>15.4</ele>
        <time>2014-06-27T14:11:42Z</time>
      </trkpt>
      <trkpt lat="59.965127312814" lon="23.427429275456">
        <ele>16.4</ele>
        <time>2014-06-27T14:11:50Z</time>
      </trkpt>
      <trkpt lat="59.965043326176" lon="23.427174214239">
        <ele>16.8</ele>
        <time>2014-06-27T14:11:55Z</time>
      </trkpt>
      <trkpt lat="59.965020527408" lon="23.427149739091">
        <ele>17</ele>
        <time>2014-06-27T14:11:57Z</time>
      </trkpt>
      <trkpt lat="59.964987083627" lon="23.426983777471">
        <ele>17.2</ele>
        <time>2014-06-27T14:12:02Z</time>
      </trkpt>
      <trkpt lat="59.964961099737" lon="23.426874309857">
        <ele>17.8</ele>
        <time>2014-06-27T14:12:05Z</time>
      </trkpt>
      <trkpt lat="59.964928829422" lon="23.426823096448">
        <ele>18.2</ele>
        <time>2014-06-27T14:12:09Z</time>
      </trkpt>
      <trkpt lat="59.964905695378" lon="23.426747659348">
        <ele>18.6</ele>
        <time>2014-06-27T14:12:12Z</time>
      </trkpt>
      <trkpt lat="59.964803017103" lon="23.426512630872">
        <ele>19</ele>
        <time>2014-06-27T14:12:18Z</time>
      </trkpt>
      <trkpt lat="59.96472364051" lon="23.426369132744">
        <ele>19.2</ele>
        <time>2014-06-27T14:12:21Z</time>
      </trkpt>
      <trkpt lat="59.96463311599" lon="23.426133768992">
        <ele>19.4</ele>
        <time>2014-06-27T14:12:27Z</time>
      </trkpt>
      <trkpt lat="59.964588105187" lon="23.426051626372">
        <ele>19.4</ele>
        <time>2014-06-27T14:12:30Z</time>
      </trkpt>
      <trkpt lat="59.964484504903" lon="23.4258514666">
        <ele>19.4</ele>
        <time>2014-06-27T14:12:35Z</time>
      </trkpt>
      <trkpt lat="59.964365062828" lon="23.425738394769">
        <ele>19.4</ele>
        <time>2014-06-27T14:12:39Z</time>
      </trkpt>
      <trkpt lat="59.964163897228" lon="23.425560447032">
        <ele>19.4</ele>
        <time>2014-06-27T14:12:48Z</time>
      </trkpt>
      <trkpt lat="59.964008748259" lon="23.425464139001">
        <ele>19.4</ele>
        <time>2014-06-27T14:12:54Z</time>
      </trkpt>
      <trkpt lat="59.963979160152" lon="23.425434550894">
        <ele>19.4</ele>
        <time>2014-06-27T14:12:55Z</time>
      </trkpt>
      <trkpt lat="59.963772713955" lon="23.425447794296">
        <ele>19.4</ele>
        <time>2014-06-27T14:13:02Z</time>
      </trkpt>
      <trkpt lat="59.963671041508" lon="23.425402364398">
        <ele>19.4</ele>
        <time>2014-06-27T14:13:05Z</time>
      </trkpt>
      <trkpt lat="59.963565345749" lon="23.42541309323">
        <ele>19.4</ele>
        <time>2014-06-27T14:13:09Z</time>
      </trkpt>
      <trkpt lat="59.963501894766" lon="23.425420720759">
        <ele>19.4</ele>
        <time>2014-06-27T14:13:12Z</time>
      </trkpt>
      <trkpt lat="59.9634169023" lon="23.425428683564">
        <ele>19.4</ele>
        <time>2014-06-27T14:13:15Z</time>
      </trkpt>
      <trkpt lat="59.963273823267" lon="23.425429940849">
        <ele>19.4</ele>
        <time>2014-06-27T14:13:19Z</time>
      </trkpt>
      <trkpt lat="59.963235098889" lon="23.425419379655">
        <ele>19.4</ele>
        <time>2014-06-27T14:13:20Z</time>
      </trkpt>
      <trkpt lat="59.963059078989" lon="23.425438825663">
        <ele>19.4</ele>
        <time>2014-06-27T14:13:25Z</time>
      </trkpt>
      <trkpt lat="59.962927734616" lon="23.425440250586">
        <ele>19.2</ele>
        <time>2014-06-27T14:13:28Z</time>
      </trkpt>
      <trkpt lat="59.962766885955" lon="23.425451314694">
        <ele>18.4</ele>
        <time>2014-06-27T14:13:33Z</time>
      </trkpt>
      <trkpt lat="59.962591452788" lon="23.42542566608">
        <ele>18</ele>
        <time>2014-06-27T14:13:39Z</time>
      </trkpt>
      <trkpt lat="59.962224241749" lon="23.425408650823">
        <ele>17.6</ele>
        <time>2014-06-27T14:13:49Z</time>
      </trkpt>
      <trkpt lat="59.96204059432" lon="23.425378895078">
        <ele>17.6</ele>
        <time>2014-06-27T14:13:55Z</time>
      </trkpt>
      <trkpt lat="59.962021148312" lon="23.425365484038">
        <ele>17.6</ele>
        <time>2014-06-27T14:13:56Z</time>
      </trkpt>
      <trkpt lat="59.961958703157" lon="23.425362215097">
        <ele>17.6</ele>
        <time>2014-06-27T14:13:58Z</time>
      </trkpt>
      <trkpt lat="59.961762482878" lon="23.425500851723">
        <ele>17.4</ele>
        <time>2014-06-27T14:14:08Z</time>
      </trkpt>
      <trkpt lat="59.961741276671" lon="23.425524907776">
        <ele>17.4</ele>
        <time>2014-06-27T14:14:09Z</time>
      </trkpt>
      <trkpt lat="59.961656032748" lon="23.425597159754">
        <ele>17.4</ele>
        <time>2014-06-27T14:14:13Z</time>
      </trkpt>
      <trkpt lat="59.961583864589" lon="23.425760858261">
        <ele>16.8</ele>
        <time>2014-06-27T14:14:18Z</time>
      </trkpt>
      <trkpt lat="59.9614974472" lon="23.425942410215">
        <ele>16.2</ele>
        <time>2014-06-27T14:14:24Z</time>
      </trkpt>
      <trkpt lat="59.961440701737" lon="23.426027989414">
        <ele>15.8</ele>
        <time>2014-06-27T14:14:26Z</time>
      </trkpt>
      <trkpt lat="59.961377334573" lon="23.42625463599">
        <ele>15</ele>
        <time>2014-06-27T14:14:31Z</time>
      </trkpt>
      <trkpt lat="59.961363839714" lon="23.426291181074">
        <ele>14.8</ele>
        <time>2014-06-27T14:14:32Z</time>
      </trkpt>
      <trkpt lat="59.961281277999" lon="23.426425710569">
        <ele>14.2</ele>
        <time>2014-06-27T14:14:37Z</time>
      </trkpt>
      <trkpt lat="59.961261496715" lon="23.426449179889">
        <ele>14.2</ele>
        <time>2014-06-27T14:14:38Z</time>
      </trkpt>
      <trkpt lat="59.96123593192" lon="23.426445910948">
        <ele>14</ele>
        <time>2014-06-27T14:14:39Z</time>
      </trkpt>
      <trkpt lat="59.961057229812" lon="23.42648765281">
        <ele>13.6</ele>
        <time>2014-06-27T14:14:46Z</time>
      </trkpt>
      <trkpt lat="59.960981457436" lon="23.426523611161">
        <ele>13.6</ele>
        <time>2014-06-27T14:14:49Z</time>
      </trkpt>
      <trkpt lat="59.96084282081" lon="23.426584631393">
        <ele>13.4</ele>
        <time>2014-06-27T14:14:54Z</time>
      </trkpt>
      <trkpt lat="59.960718098138" lon="23.426684292184">
        <ele>13.4</ele>
        <time>2014-06-27T14:14:59Z</time>
      </trkpt>
      <trkpt lat="59.960599494253" lon="23.426730560272">
        <ele>13.2</ele>
        <time>2014-06-27T14:15:04Z</time>
      </trkpt>
      <trkpt lat="59.960502850946" lon="23.426701307441">
        <ele>13.2</ele>
        <time>2014-06-27T14:15:08Z</time>
      </trkpt>
      <trkpt lat="59.960441495438" lon="23.426656548095">
        <ele>13.2</ele>
        <time>2014-06-27T14:15:12Z</time>
      </trkpt>
      <trkpt lat="59.960420205412" lon="23.426628552549">
        <ele>13.2</ele>
        <time>2014-06-27T14:15:13Z</time>
      </trkpt>
      <trkpt lat="59.960341667009" lon="23.42652285679">
        <ele>13.2</ele>
        <time>2014-06-27T14:15:17Z</time>
      </trkpt>
      <trkpt lat="59.960232031757" lon="23.426398134118">
        <ele>13.2</ele>
        <time>2014-06-27T14:15:22Z</time>
      </trkpt>
      <trkpt lat="59.960130526948" lon="23.426274836369">
        <ele>13.2</ele>
        <time>2014-06-27T14:15:26Z</time>
      </trkpt>
      <trkpt lat="59.96004402574" lon="23.42617668432">
        <ele>13.2</ele>
        <time>2014-06-27T14:15:30Z</time>
      </trkpt>
      <trkpt lat="59.959992560874" lon="23.426102336867">
        <ele>13.2</ele>
        <time>2014-06-27T14:15:33Z</time>
      </trkpt>
      <trkpt lat="59.959869346944" lon="23.425945595337">
        <ele>13.2</ele>
        <time>2014-06-27T14:15:39Z</time>
      </trkpt>
      <trkpt lat="59.959792736378" lon="23.425890526254">
        <ele>13.2</ele>
        <time>2014-06-27T14:15:42Z</time>
      </trkpt>
      <trkpt lat="59.959767590678" lon="23.42587409773">
        <ele>13.2</ele>
        <time>2014-06-27T14:15:43Z</time>
      </trkpt>
      <trkpt lat="59.959658542159" lon="23.425706878825">
        <ele>14</ele>
        <time>2014-06-27T14:15:48Z</time>
      </trkpt>
      <trkpt lat="59.959641778359" lon="23.425662203298">
        <ele>14.2</ele>
        <time>2014-06-27T14:15:49Z</time>
      </trkpt>
      <trkpt lat="59.959569274924" lon="23.425446117916">
        <ele>14.6</ele>
        <time>2014-06-27T14:15:54Z</time>
      </trkpt>
      <trkpt lat="59.959561898852" lon="23.425407309719">
        <ele>14.6</ele>
        <time>2014-06-27T14:15:55Z</time>
      </trkpt>
      <trkpt lat="59.95955117002" lon="23.425268840731">
        <ele>14.8</ele>
        <time>2014-06-27T14:15:59Z</time>
      </trkpt>
      <trkpt lat="59.959542117568" lon="23.425166246275">
        <ele>15</ele>
        <time>2014-06-27T14:16:01Z</time>
      </trkpt>
      <trkpt lat="59.959522587741" lon="23.425039595766">
        <ele>15</ele>
        <time>2014-06-27T14:16:04Z</time>
      </trkpt>
      <trkpt lat="59.95951345147" lon="23.424937336586">
        <ele>15</ele>
        <time>2014-06-27T14:16:06Z</time>
      </trkpt>
      <trkpt lat="59.959514624936" lon="23.424763747437">
        <ele>15.2</ele>
        <time>2014-06-27T14:16:09Z</time>
      </trkpt>
      <trkpt lat="59.959561312119" lon="23.424536849404">
        <ele>15.2</ele>
        <time>2014-06-27T14:16:14Z</time>
      </trkpt>
      <trkpt lat="59.959576231901" lon="23.424463004865">
        <ele>15.2</ele>
        <time>2014-06-27T14:16:16Z</time>
      </trkpt>
      <trkpt lat="59.959576148082" lon="23.424216744643">
        <ele>15.2</ele>
        <time>2014-06-27T14:16:21Z</time>
      </trkpt>
      <trkpt lat="59.959577656824" lon="23.424126555399">
        <ele>15.2</ele>
        <time>2014-06-27T14:16:23Z</time>
      </trkpt>
      <trkpt lat="59.959539854455" lon="23.423965706738">
        <ele>15.2</ele>
        <time>2014-06-27T14:16:27Z</time>
      </trkpt>
      <trkpt lat="59.959490987978" lon="23.423844253007">
        <ele>15.2</ele>
        <time>2014-06-27T14:16:30Z</time>
      </trkpt>
      <trkpt lat="59.9594354998" lon="23.423621965019">
        <ele>15.2</ele>
        <time>2014-06-27T14:16:35Z</time>
      </trkpt>
      <trkpt lat="59.959364505107" lon="23.423416776107">
        <ele>15.2</ele>
        <time>2014-06-27T14:16:40Z</time>
      </trkpt>
      <trkpt lat="59.959331815697" lon="23.423323150284">
        <ele>15.2</ele>
        <time>2014-06-27T14:16:42Z</time>
      </trkpt>
      <trkpt lat="59.959246487955" lon="23.423119973028">
        <ele>15.2</ele>
        <time>2014-06-27T14:16:47Z</time>
      </trkpt>
      <trkpt lat="59.959222096626" lon="23.423089546731">
        <ele>15.2</ele>
        <time>2014-06-27T14:16:48Z</time>
      </trkpt>
      <trkpt lat="59.959203572627" lon="23.423069011076">
        <ele>15.2</ele>
        <time>2014-06-27T14:16:49Z</time>
      </trkpt>
      <trkpt lat="59.959101816361" lon="23.42300078241">
        <ele>16</ele>
        <time>2014-06-27T14:16:53Z</time>
      </trkpt>
      <trkpt lat="59.958950355428" lon="23.422854685893">
        <ele>16.6</ele>
        <time>2014-06-27T14:16:59Z</time>
      </trkpt>
      <trkpt lat="59.958842145099" lon="23.422765670115">
        <ele>16.8</ele>
        <time>2014-06-27T14:17:03Z</time>
      </trkpt>
      <trkpt lat="59.958785651093" lon="23.422720994588">
        <ele>17</ele>
        <time>2014-06-27T14:17:05Z</time>
      </trkpt>
      <trkpt lat="59.958682386085" lon="23.422563163411">
        <ele>17</ele>
        <time>2014-06-27T14:17:10Z</time>
      </trkpt>
      <trkpt lat="59.958591023375" lon="23.42239309466">
        <ele>17.2</ele>
        <time>2014-06-27T14:17:15Z</time>
      </trkpt>
      <trkpt lat="59.958524135813" lon="23.422230401981">
        <ele>17.2</ele>
        <time>2014-06-27T14:17:19Z</time>
      </trkpt>
      <trkpt lat="59.958506198547" lon="23.422204585729">
        <ele>16.2</ele>
        <time>2014-06-27T14:17:29Z</time>
      </trkpt>
      <trkpt lat="59.958478370639" lon="23.422050945502">
        <ele>15.2</ele>
        <time>2014-06-27T14:17:57Z</time>
      </trkpt>
      <trkpt lat="59.958483567417" lon="23.422093777011">
        <ele>15.2</ele>
        <time>2014-06-27T14:18:05Z</time>
      </trkpt>
      <trkpt lat="59.958498571018" lon="23.422237442777">
        <ele>15.2</ele>
        <time>2014-06-27T14:19:21Z</time>
      </trkpt>
      <trkpt lat="59.958511730601" lon="23.422078941048">
        <ele>15.2</ele>
        <time>2014-06-27T14:19:26Z</time>
      </trkpt>
      <trkpt lat="59.958554226834" lon="23.421860760191">
        <ele>15.2</ele>
        <time>2014-06-27T14:19:31Z</time>
      </trkpt>
      <trkpt lat="59.958565793856" lon="23.421828825152">
        <ele>15.2</ele>
        <time>2014-06-27T14:19:32Z</time>
      </trkpt>
      <trkpt lat="59.958674758556" lon="23.42160854882">
        <ele>14.8</ele>
        <time>2014-06-27T14:19:39Z</time>
      </trkpt>
      <trkpt lat="59.958710213993" lon="23.421552222452">
        <ele>14.6</ele>
        <time>2014-06-27T14:19:41Z</time>
      </trkpt>
      <trkpt lat="59.958740556471" lon="23.421494722618">
        <ele>14.2</ele>
        <time>2014-06-27T14:19:43Z</time>
      </trkpt>
      <trkpt lat="59.9588571487" lon="23.42137301743">
        <ele>13.8</ele>
        <time>2014-06-27T14:19:48Z</time>
      </trkpt>
      <trkpt lat="59.958906350453" lon="23.42134284259">
        <ele>13.6</ele>
        <time>2014-06-27T14:19:51Z</time>
      </trkpt>
      <trkpt lat="59.959050938228" lon="23.421146622311">
        <ele>12.8</ele>
        <time>2014-06-27T14:19:57Z</time>
      </trkpt>
      <trkpt lat="59.959161830765" lon="23.421099851309">
        <ele>12</ele>
        <time>2014-06-27T14:20:02Z</time>
      </trkpt>
      <trkpt lat="59.959191167415" lon="23.421138240411">
        <ele>11.8</ele>
        <time>2014-06-27T14:20:04Z</time>
      </trkpt>
      <trkpt lat="59.959243638109" lon="23.421162967016">
        <ele>11.8</ele>
        <time>2014-06-27T14:20:06Z</time>
      </trkpt>
      <trkpt lat="59.9593181532" lon="23.421342926409">
        <ele>11.2</ele>
        <time>2014-06-27T14:20:11Z</time>
      </trkpt>
      <trkpt lat="59.95936928279" lon="23.421459099543">
        <ele>10.6</ele>
        <time>2014-06-27T14:20:14Z</time>
      </trkpt>
      <trkpt lat="59.959415131783" lon="23.42159262321">
        <ele>10.2</ele>
        <time>2014-06-27T14:20:17Z</time>
      </trkpt>
      <trkpt lat="59.95943298523" lon="23.421630928493">
        <ele>10</ele>
        <time>2014-06-27T14:20:18Z</time>
      </trkpt>
      <trkpt lat="59.959444216976" lon="23.421669904328">
        <ele>10</ele>
        <time>2014-06-27T14:20:19Z</time>
      </trkpt>
      <trkpt lat="59.959452598876" lon="23.421739138822">
        <ele>9.8</ele>
        <time>2014-06-27T14:20:21Z</time>
      </trkpt>
      <trkpt lat="59.959451844505" lon="23.421860508734">
        <ele>9.6</ele>
        <time>2014-06-27T14:20:24Z</time>
      </trkpt>
      <trkpt lat="59.959490904159" lon="23.422009958011">
        <ele>9.4</ele>
        <time>2014-06-27T14:20:28Z</time>
      </trkpt>
      <trkpt lat="59.959526108139" lon="23.422116743417">
        <ele>9.2</ele>
        <time>2014-06-27T14:20:31Z</time>
      </trkpt>
      <trkpt lat="59.959537675161" lon="23.422171477224">
        <ele>9.2</ele>
        <time>2014-06-27T14:20:32Z</time>
      </trkpt>
      <trkpt lat="59.959552762581" lon="23.42226485159">
        <ele>9.2</ele>
        <time>2014-06-27T14:20:34Z</time>
      </trkpt>
      <trkpt lat="59.959577908281" lon="23.422432741047">
        <ele>9.2</ele>
        <time>2014-06-27T14:20:38Z</time>
      </trkpt>
      <trkpt lat="59.959611100605" lon="23.422506837043">
        <ele>9</ele>
        <time>2014-06-27T14:20:40Z</time>
      </trkpt>
      <trkpt lat="59.95967270757" lon="23.422698112001">
        <ele>9</ele>
        <time>2014-06-27T14:20:45Z</time>
      </trkpt>
      <trkpt lat="59.959699194374" lon="23.422733148343">
        <ele>9</ele>
        <time>2014-06-27T14:20:46Z</time>
      </trkpt>
      <trkpt lat="59.959774044741" lon="23.422850914038">
        <ele>9</ele>
        <time>2014-06-27T14:20:49Z</time>
      </trkpt>
      <trkpt lat="59.959882422708" lon="23.423052079638">
        <ele>9</ele>
        <time>2014-06-27T14:20:54Z</time>
      </trkpt>
      <trkpt lat="59.959930199538" lon="23.423169174781">
        <ele>9</ele>
        <time>2014-06-27T14:20:57Z</time>
      </trkpt>
      <trkpt lat="59.959983005508" lon="23.423363131947">
        <ele>9</ele>
        <time>2014-06-27T14:21:01Z</time>
      </trkpt>
      <trkpt lat="59.960098675728" lon="23.423501098021">
        <ele>9</ele>
        <time>2014-06-27T14:21:07Z</time>
      </trkpt>
      <trkpt lat="59.96018316528" lon="23.423586509582">
        <ele>9</ele>
        <time>2014-06-27T14:21:12Z</time>
      </trkpt>
      <trkpt lat="59.960202108374" lon="23.423590700532">
        <ele>9</ele>
        <time>2014-06-27T14:21:13Z</time>
      </trkpt>
      <trkpt lat="59.960340325905" lon="23.42366798165">
        <ele>9</ele>
        <time>2014-06-27T14:21:18Z</time>
      </trkpt>
      <trkpt lat="59.960418109937" lon="23.423708717684">
        <ele>9</ele>
        <time>2014-06-27T14:21:21Z</time>
      </trkpt>
      <trkpt lat="59.960460438532" lon="23.423754063763">
        <ele>9</ele>
        <time>2014-06-27T14:21:23Z</time>
      </trkpt>
      <trkpt lat="59.960614665492" lon="23.423867973784">
        <ele>9</ele>
        <time>2014-06-27T14:21:31Z</time>
      </trkpt>
      <trkpt lat="59.960631010197" lon="23.423894544407">
        <ele>9</ele>
        <time>2014-06-27T14:21:32Z</time>
      </trkpt>
      <trkpt lat="59.960737376508" lon="23.42400661041">
        <ele>9</ele>
        <time>2014-06-27T14:21:36Z</time>
      </trkpt>
      <trkpt lat="59.960898225169" lon="23.424166201786">
        <ele>9</ele>
        <time>2014-06-27T14:21:42Z</time>
      </trkpt>
      <trkpt lat="59.961022612565" lon="23.424365439549">
        <ele>9</ele>
        <time>2014-06-27T14:21:48Z</time>
      </trkpt>
      <trkpt lat="59.961123363003" lon="23.424543135829">
        <ele>9</ele>
        <time>2014-06-27T14:21:53Z</time>
      </trkpt>
      <trkpt lat="59.961168373806" lon="23.424662410266">
        <ele>9</ele>
        <time>2014-06-27T14:21:56Z</time>
      </trkpt>
      <trkpt lat="59.961337520548" lon="23.424925769564">
        <ele>9</ele>
        <time>2014-06-27T14:22:04Z</time>
      </trkpt>
      <trkpt lat="59.961376161107" lon="23.424995004058">
        <ele>9</ele>
        <time>2014-06-27T14:22:06Z</time>
      </trkpt>
      <trkpt lat="59.961447071981" lon="23.425094916306">
        <ele>9</ele>
        <time>2014-06-27T14:22:09Z</time>
      </trkpt>
      <trkpt lat="59.961545140211" lon="23.425215112752">
        <ele>9</ele>
        <time>2014-06-27T14:22:13Z</time>
      </trkpt>
      <trkpt lat="59.961623091881" lon="23.425247634524">
        <ele>9</ele>
        <time>2014-06-27T14:22:16Z</time>
      </trkpt>
      <trkpt lat="59.961668354141" lon="23.425248640352">
        <ele>9</ele>
        <time>2014-06-27T14:22:18Z</time>
      </trkpt>
      <trkpt lat="59.961715292781" lon="23.425268170179">
        <ele>9</ele>
        <time>2014-06-27T14:22:20Z</time>
      </trkpt>
      <trkpt lat="59.961813361011" lon="23.425207820499">
        <ele>9</ele>
        <time>2014-06-27T14:22:24Z</time>
      </trkpt>
      <trkpt lat="59.961935736751" lon="23.425181585152">
        <ele>9</ele>
        <time>2014-06-27T14:22:29Z</time>
      </trkpt>
      <trkpt lat="59.962051826066" lon="23.425222237367">
        <ele>9</ele>
        <time>2014-06-27T14:22:33Z</time>
      </trkpt>
      <trkpt lat="59.962203622275" lon="23.425230283991">
        <ele>9</ele>
        <time>2014-06-27T14:22:38Z</time>
      </trkpt>
      <trkpt lat="59.962375618863" lon="23.425234977855">
        <ele>9</ele>
        <time>2014-06-27T14:22:44Z</time>
      </trkpt>
      <trkpt lat="59.962583406164" lon="23.425237408606">
        <ele>9</ele>
        <time>2014-06-27T14:22:51Z</time>
      </trkpt>
      <trkpt lat="59.962759006969" lon="23.425248556533">
        <ele>9</ele>
        <time>2014-06-27T14:22:57Z</time>
      </trkpt>
      <trkpt lat="59.962953467049" lon="23.425266745256">
        <ele>9</ele>
        <time>2014-06-27T14:23:04Z</time>
      </trkpt>
      <trkpt lat="59.963057989342" lon="23.425275713889">
        <ele>9</ele>
        <time>2014-06-27T14:23:08Z</time>
      </trkpt>
      <trkpt lat="59.963134851365" lon="23.425302200693">
        <ele>9</ele>
        <time>2014-06-27T14:23:11Z</time>
      </trkpt>
      <trkpt lat="59.963239792753" lon="23.425256100243">
        <ele>9</ele>
        <time>2014-06-27T14:23:17Z</time>
      </trkpt>
      <trkpt lat="59.96333056873" lon="23.425154763072">
        <ele>9</ele>
        <time>2014-06-27T14:23:22Z</time>
      </trkpt>
      <trkpt lat="59.963394438808" lon="23.425080080343">
        <ele>9</ele>
        <time>2014-06-27T14:23:26Z</time>
      </trkpt>
      <trkpt lat="59.963434336652" lon="23.42506943533">
        <ele>9</ele>
        <time>2014-06-27T14:23:28Z</time>
      </trkpt>
      <trkpt lat="59.9634923394" lon="23.425076727583">
        <ele>9</ele>
        <time>2014-06-27T14:23:30Z</time>
      </trkpt>
      <trkpt lat="59.963667353472" lon="23.425056946299">
        <ele>9</ele>
        <time>2014-06-27T14:23:36Z</time>
      </trkpt>
      <trkpt lat="59.963694929923" lon="23.425058455041">
        <ele>9</ele>
        <time>2014-06-27T14:23:37Z</time>
      </trkpt>
      <trkpt lat="59.963788639565" lon="23.4250803318">
        <ele>9</ele>
        <time>2014-06-27T14:23:40Z</time>
      </trkpt>
      <trkpt lat="59.963913697513" lon="23.425062478353">
        <ele>9</ele>
        <time>2014-06-27T14:23:44Z</time>
      </trkpt>
      <trkpt lat="59.964083850083" lon="23.424999278827">
        <ele>9</ele>
        <time>2014-06-27T14:23:50Z</time>
      </trkpt>
      <trkpt lat="59.964230533333" lon="23.424919734596">
        <ele>9</ele>
        <time>2014-06-27T14:23:56Z</time>
      </trkpt>
      <trkpt lat="59.964338827481" lon="23.42482719842">
        <ele>9</ele>
        <time>2014-06-27T14:24:01Z</time>
      </trkpt>
      <trkpt lat="59.964454413882" lon="23.424744888162">
        <ele>9</ele>
        <time>2014-06-27T14:24:06Z</time>
      </trkpt>
      <trkpt lat="59.964484923998" lon="23.424728711095">
        <ele>9</ele>
        <time>2014-06-27T14:24:07Z</time>
      </trkpt>
      <trkpt lat="59.964607215919" lon="23.424708762173">
        <ele>9.6</ele>
        <time>2014-06-27T14:24:12Z</time>
      </trkpt>
      <trkpt lat="59.964640492062" lon="23.424711109105">
        <ele>9.8</ele>
        <time>2014-06-27T14:24:13Z</time>
      </trkpt>
      <trkpt lat="59.964752390427" lon="23.424808087688">
        <ele>10.4</ele>
        <time>2014-06-27T14:24:18Z</time>
      </trkpt>
      <trkpt lat="59.964872754511" lon="23.424900456226">
        <ele>10.6</ele>
        <time>2014-06-27T14:24:22Z</time>
      </trkpt>
      <trkpt lat="59.964980545745" lon="23.424979413724">
        <ele>10.8</ele>
        <time>2014-06-27T14:24:26Z</time>
      </trkpt>
      <trkpt lat="59.96502035977" lon="23.425028196382">
        <ele>10.8</ele>
        <time>2014-06-27T14:24:28Z</time>
      </trkpt>
      <trkpt lat="59.96510836972" lon="23.425111847744">
        <ele>10.8</ele>
        <time>2014-06-27T14:24:32Z</time>
      </trkpt>
      <trkpt lat="59.965252957495" lon="23.42515409252">
        <ele>11</ele>
        <time>2014-06-27T14:24:37Z</time>
      </trkpt>
      <trkpt lat="59.965323868369" lon="23.425178735306">
        <ele>11</ele>
        <time>2014-06-27T14:24:40Z</time>
      </trkpt>
      <trkpt lat="59.965362425109" lon="23.425214945114">
        <ele>11</ele>
        <time>2014-06-27T14:24:42Z</time>
      </trkpt>
      <trkpt lat="59.965496367871" lon="23.425269846559">
        <ele>11</ele>
        <time>2014-06-27T14:24:48Z</time>
      </trkpt>
      <trkpt lat="59.965523776684" lon="23.425272025853">
        <ele>11</ele>
        <time>2014-06-27T14:24:49Z</time>
      </trkpt>
      <trkpt lat="59.965552358963" lon="23.42527814464">
        <ele>11</ele>
        <time>2014-06-27T14:24:50Z</time>
      </trkpt>
      <trkpt lat="59.965636345601" lon="23.425292310051">
        <ele>11</ele>
        <time>2014-06-27T14:24:55Z</time>
      </trkpt>
      <trkpt lat="59.965828291111" lon="23.425290382214">
        <ele>11</ele>
        <time>2014-06-27T14:25:01Z</time>
      </trkpt>
      <trkpt lat="59.966037838611" lon="23.425293148241">
        <ele>11</ele>
        <time>2014-06-27T14:25:08Z</time>
      </trkpt>
      <trkpt lat="59.96616951826" lon="23.42528065921">
        <ele>11.8</ele>
        <time>2014-06-27T14:25:12Z</time>
      </trkpt>
      <trkpt lat="59.966292313095" lon="23.425295830449">
        <ele>12.2</ele>
        <time>2014-06-27T14:25:17Z</time>
      </trkpt>
      <trkpt lat="59.966367079643" lon="23.425427510098">
        <ele>12.4</ele>
        <time>2014-06-27T14:25:20Z</time>
      </trkpt>
      <trkpt lat="59.966383340529" lon="23.425477130946">
        <ele>12.6</ele>
        <time>2014-06-27T14:25:21Z</time>
      </trkpt>
      <trkpt lat="59.96641426974" lon="23.425562458688">
        <ele>12.6</ele>
        <time>2014-06-27T14:25:23Z</time>
      </trkpt>
      <trkpt lat="59.966414437378" lon="23.425771419455">
        <ele>12.8</ele>
        <time>2014-06-27T14:25:27Z</time>
      </trkpt>
      <trkpt lat="59.966406390754" lon="23.426025055749">
        <ele>12.8</ele>
        <time>2014-06-27T14:25:31Z</time>
      </trkpt>
      <trkpt lat="59.966400523424" lon="23.4261867426">
        <ele>13</ele>
        <time>2014-06-27T14:25:34Z</time>
      </trkpt>
      <trkpt lat="59.96644025363" lon="23.426576836226">
        <ele>14</ele>
        <time>2014-06-27T14:25:41Z</time>
      </trkpt>
      <trkpt lat="59.96644528277" lon="23.426855450582">
        <ele>14.4</ele>
        <time>2014-06-27T14:25:46Z</time>
      </trkpt>
      <trkpt lat="59.96642265164" lon="23.42712132445">
        <ele>14.6</ele>
        <time>2014-06-27T14:25:51Z</time>
      </trkpt>
      <trkpt lat="59.96634721454" lon="23.427472861336">
        <ele>14.8</ele>
        <time>2014-06-27T14:25:57Z</time>
      </trkpt>
      <trkpt lat="59.966285775213" lon="23.427742507059">
        <ele>15</ele>
        <time>2014-06-27T14:26:02Z</time>
      </trkpt>
      <trkpt lat="59.966193658132" lon="23.428033778084">
        <ele>15</ele>
        <time>2014-06-27T14:26:08Z</time>
      </trkpt>
      <trkpt lat="59.966114449177" lon="23.428182221533">
        <ele>15</ele>
        <time>2014-06-27T14:26:12Z</time>
      </trkpt>
      <trkpt lat="59.966017051499" lon="23.428355894501">
        <ele>15</ele>
        <time>2014-06-27T14:26:17Z</time>
      </trkpt>
      <trkpt lat="59.965976231646" lon="23.428418172018">
        <ele>15</ele>
        <time>2014-06-27T14:26:19Z</time>
      </trkpt>
      <trkpt lat="59.965900878365" lon="23.428534596609">
        <ele>15</ele>
        <time>2014-06-27T14:26:22Z</time>
      </trkpt>
      <trkpt lat="59.965751680545" lon="23.428789574007">
        <ele>15</ele>
        <time>2014-06-27T14:26:29Z</time>
      </trkpt>
      <trkpt lat="59.965677836006" lon="23.428950674125">
        <ele>15</ele>
        <time>2014-06-27T14:26:33Z</time>
      </trkpt>
      <trkpt lat="59.96559871087" lon="23.429188887723">
        <ele>15</ele>
        <time>2014-06-27T14:26:38Z</time>
      </trkpt>
      <trkpt lat="59.965543138873" lon="23.429411594806">
        <ele>15</ele>
        <time>2014-06-27T14:26:42Z</time>
      </trkpt>
      <trkpt lat="59.965498379527" lon="23.429698507243">
        <ele>15</ele>
        <time>2014-06-27T14:26:48Z</time>
      </trkpt>
      <trkpt lat="59.965477927691" lon="23.429881567939">
        <ele>15</ele>
        <time>2014-06-27T14:26:52Z</time>
      </trkpt>
      <trkpt lat="59.965468372325" lon="23.429928925674">
        <ele>15</ele>
        <time>2014-06-27T14:26:53Z</time>
      </trkpt>
      <trkpt lat="59.96544448391" lon="23.430098240054">
        <ele>15</ele>
        <time>2014-06-27T14:26:57Z</time>
      </trkpt>
      <trkpt lat="59.96542185278" lon="23.430299992387">
        <ele>15</ele>
        <time>2014-06-27T14:27:01Z</time>
      </trkpt>
      <trkpt lat="59.965357898883" lon="23.430626886487">
        <ele>15</ele>
        <time>2014-06-27T14:27:06Z</time>
      </trkpt>
      <trkpt lat="59.965280869222" lon="23.430874571632">
        <ele>15</ele>
        <time>2014-06-27T14:27:10Z</time>
      </trkpt>
      <trkpt lat="59.96519637967" lon="23.431125022804">
        <ele>15</ele>
        <time>2014-06-27T14:27:16Z</time>
      </trkpt>
      <trkpt lat="59.965131419945" lon="23.431394165613">
        <ele>15</ele>
        <time>2014-06-27T14:27:21Z</time>
      </trkpt>
      <trkpt lat="59.965157655292" lon="23.43164755045">
        <ele>15</ele>
        <time>2014-06-27T14:27:25Z</time>
      </trkpt>
      <trkpt lat="59.965234182039" lon="23.431883333297">
        <ele>16</ele>
        <time>2014-06-27T14:27:30Z</time>
      </trkpt>
      <trkpt lat="59.965244910871" lon="23.431923734055">
        <ele>16</ele>
        <time>2014-06-27T14:27:31Z</time>
      </trkpt>
      <trkpt lat="59.96534306292" lon="23.432068573287">
        <ele>16.4</ele>
        <time>2014-06-27T14:27:36Z</time>
      </trkpt>
      <trkpt lat="59.965448004308" lon="23.432196732538">
        <ele>16.8</ele>
        <time>2014-06-27T14:27:41Z</time>
      </trkpt>
      <trkpt lat="59.965459990425" lon="23.432229924862">
        <ele>16.8</ele>
        <time>2014-06-27T14:27:42Z</time>
      </trkpt>
      <trkpt lat="59.965506761427" lon="23.432306283971">
        <ele>16.8</ele>
        <time>2014-06-27T14:27:45Z</time>
      </trkpt>
      <trkpt lat="59.96558446164" lon="23.432381134338">
        <ele>17</ele>
        <time>2014-06-27T14:27:49Z</time>
      </trkpt>
      <trkpt lat="59.965666771898" lon="23.43245388923">
        <ele>17</ele>
        <time>2014-06-27T14:27:52Z</time>
      </trkpt>
      <trkpt lat="59.965764421033" lon="23.432626137275">
        <ele>17</ele>
        <time>2014-06-27T14:27:57Z</time>
      </trkpt>
      <trkpt lat="59.965839439038" lon="23.432813975654">
        <ele>17</ele>
        <time>2014-06-27T14:28:01Z</time>
      </trkpt>
      <trkpt lat="59.965846731291" lon="23.432863512683">
        <ele>17</ele>
        <time>2014-06-27T14:28:02Z</time>
      </trkpt>
      <trkpt lat="59.965868859507" lon="23.433179091218">
        <ele>17</ele>
        <time>2014-06-27T14:28:08Z</time>
      </trkpt>
      <trkpt lat="59.965862992177" lon="23.433463405266">
        <ele>17</ele>
        <time>2014-06-27T14:28:13Z</time>
      </trkpt>
      <trkpt lat="59.965853855906" lon="23.433680915571">
        <ele>17.2</ele>
        <time>2014-06-27T14:28:17Z</time>
      </trkpt>
      <trkpt lat="59.965829799853" lon="23.433971432225">
        <ele>17.2</ele>
        <time>2014-06-27T14:28:22Z</time>
      </trkpt>
      <trkpt lat="59.965802223402" lon="23.434203024122">
        <ele>17.2</ele>
        <time>2014-06-27T14:28:26Z</time>
      </trkpt>
      <trkpt lat="59.965783867041" lon="23.434480716469">
        <ele>17.2</ele>
        <time>2014-06-27T14:28:31Z</time>
      </trkpt>
      <trkpt lat="59.965804989429" lon="23.434767712725">
        <ele>17.2</ele>
        <time>2014-06-27T14:28:36Z</time>
      </trkpt>
      <trkpt lat="59.965852095707" lon="23.435024115046">
        <ele>17.6</ele>
        <time>2014-06-27T14:28:40Z</time>
      </trkpt>
      <trkpt lat="59.965891406818" lon="23.435357127933">
        <ele>18.4</ele>
        <time>2014-06-27T14:28:47Z</time>
      </trkpt>
      <trkpt lat="59.965905823686" lon="23.435477072922">
        <ele>18.6</ele>
        <time>2014-06-27T14:28:49Z</time>
      </trkpt>
      <trkpt lat="59.96592560497" lon="23.435823329211">
        <ele>18.8</ele>
        <time>2014-06-27T14:28:55Z</time>
      </trkpt>
      <trkpt lat="59.965928203359" lon="23.435927851504">
        <ele>18.8</ele>
        <time>2014-06-27T14:28:57Z</time>
      </trkpt>
      <trkpt lat="59.965940608571" lon="23.436194479743">
        <ele>19.8</ele>
        <time>2014-06-27T14:29:02Z</time>
      </trkpt>
      <trkpt lat="59.965938345458" lon="23.436243932953">
        <ele>19.8</ele>
        <time>2014-06-27T14:29:03Z</time>
      </trkpt>
      <trkpt lat="59.965941195304" lon="23.436496731057">
        <ele>20.4</ele>
        <time>2014-06-27T14:29:08Z</time>
      </trkpt>
      <trkpt lat="59.965955695991" lon="23.436709631317">
        <ele>20.8</ele>
        <time>2014-06-27T14:29:12Z</time>
      </trkpt>
      <trkpt lat="59.965968268841" lon="23.43698346799">
        <ele>21</ele>
        <time>2014-06-27T14:29:17Z</time>
      </trkpt>
      <trkpt lat="59.965982518071" lon="23.437251604971">
        <ele>21.4</ele>
        <time>2014-06-27T14:29:22Z</time>
      </trkpt>
      <trkpt lat="59.965998695138" lon="23.437470372561">
        <ele>22.2</ele>
        <time>2014-06-27T14:29:26Z</time>
      </trkpt>
      <trkpt lat="59.966006406486" lon="23.437572380284">
        <ele>22.4</ele>
        <time>2014-06-27T14:29:28Z</time>
      </trkpt>
      <trkpt lat="59.965997856948" lon="23.43789206595">
        <ele>22.8</ele>
        <time>2014-06-27T14:29:34Z</time>
      </trkpt>
      <trkpt lat="59.966003640459" lon="23.43795325382">
        <ele>22.8</ele>
        <time>2014-06-27T14:29:35Z</time>
      </trkpt>
      <trkpt lat="59.966058709542" lon="23.438186773554">
        <ele>23</ele>
        <time>2014-06-27T14:29:39Z</time>
      </trkpt>
      <trkpt lat="59.966074132238" lon="23.43823404747">
        <ele>23</ele>
        <time>2014-06-27T14:29:40Z</time>
      </trkpt>
      <trkpt lat="59.966148228234" lon="23.43850478284">
        <ele>23.2</ele>
        <time>2014-06-27T14:29:45Z</time>
      </trkpt>
      <trkpt lat="59.96618712025" lon="23.438697315083">
        <ele>23.2</ele>
        <time>2014-06-27T14:29:49Z</time>
      </trkpt>
      <trkpt lat="59.966194328684" lon="23.438971570851">
        <ele>23.2</ele>
        <time>2014-06-27T14:29:54Z</time>
      </trkpt>
      <trkpt lat="59.966206901534" lon="23.439126468363">
        <ele>23.2</ele>
        <time>2014-06-27T14:29:57Z</time>
      </trkpt>
      <trkpt lat="59.96620891319" lon="23.439381697218">
        <ele>23.4</ele>
        <time>2014-06-27T14:30:01Z</time>
      </trkpt>
      <trkpt lat="59.966213187959" lon="23.43944104107">
        <ele>23.4</ele>
        <time>2014-06-27T14:30:02Z</time>
      </trkpt>
      <trkpt lat="59.966235483813" lon="23.439655701529">
        <ele>23.4</ele>
        <time>2014-06-27T14:30:06Z</time>
      </trkpt>
      <trkpt lat="59.966244284808" lon="23.439943368337">
        <ele>23.4</ele>
        <time>2014-06-27T14:30:12Z</time>
      </trkpt>
      <trkpt lat="59.966219558203" lon="23.440156436235">
        <ele>23.4</ele>
        <time>2014-06-27T14:30:16Z</time>
      </trkpt>
      <trkpt lat="59.966182007291" lon="23.440398170231">
        <ele>23.4</ele>
        <time>2014-06-27T14:30:20Z</time>
      </trkpt>
      <trkpt lat="59.966156191039" lon="23.440629175395">
        <ele>23.4</ele>
        <time>2014-06-27T14:30:24Z</time>
      </trkpt>
      <trkpt lat="59.966126686751" lon="23.440905694276">
        <ele>23.4</ele>
        <time>2014-06-27T14:30:30Z</time>
      </trkpt>
      <trkpt lat="59.966117718118" lon="23.441001331755">
        <ele>23.4</ele>
        <time>2014-06-27T14:30:32Z</time>
      </trkpt>
      <trkpt lat="59.96610330125" lon="23.441199312233">
        <ele>23.4</ele>
        <time>2014-06-27T14:30:36Z</time>
      </trkpt>
      <trkpt lat="59.966098942662" lon="23.441367872242">
        <ele>23.4</ele>
        <time>2014-06-27T14:30:40Z</time>
      </trkpt>
      <trkpt lat="59.966090812219" lon="23.44149125381">
        <ele>23.4</ele>
        <time>2014-06-27T14:30:42Z</time>
      </trkpt>
      <trkpt lat="59.966131464434" lon="23.441897943598">
        <ele>23.4</ele>
        <time>2014-06-27T14:30:49Z</time>
      </trkpt>
      <trkpt lat="59.966150072252" lon="23.44201512256">
        <ele>23.4</ele>
        <time>2014-06-27T14:30:51Z</time>
      </trkpt>
      <trkpt lat="59.96617287102" lon="23.442132133884">
        <ele>23.4</ele>
        <time>2014-06-27T14:30:53Z</time>
      </trkpt>
      <trkpt lat="59.966278315322" lon="23.442421560891">
        <ele>23.4</ele>
        <time>2014-06-27T14:30:59Z</time>
      </trkpt>
      <trkpt lat="59.966325840695" lon="23.442618116446">
        <ele>23.4</ele>
        <time>2014-06-27T14:31:03Z</time>
      </trkpt>
      <trkpt lat="59.966382250882" lon="23.442850714171">
        <ele>23.4</ele>
        <time>2014-06-27T14:31:08Z</time>
      </trkpt>
      <trkpt lat="59.966422148726" lon="23.442942412157">
        <ele>23.4</ele>
        <time>2014-06-27T14:31:10Z</time>
      </trkpt>
      <trkpt lat="59.96653916005" lon="23.443132848925">
        <ele>23.4</ele>
        <time>2014-06-27T14:31:16Z</time>
      </trkpt>
      <trkpt lat="59.966593223305" lon="23.443169896923">
        <ele>23.4</ele>
        <time>2014-06-27T14:31:18Z</time>
      </trkpt>
      <trkpt lat="59.96670512167" lon="23.443310293748">
        <ele>23.4</ele>
        <time>2014-06-27T14:31:23Z</time>
      </trkpt>
      <trkpt lat="59.966796149104" lon="23.443434010592">
        <ele>23.4</ele>
        <time>2014-06-27T14:31:27Z</time>
      </trkpt>
      <trkpt lat="59.966904862347" lon="23.44360349261">
        <ele>23.4</ele>
        <time>2014-06-27T14:31:32Z</time>
      </trkpt>
      <trkpt lat="59.967009300821" lon="23.443762916348">
        <ele>23.4</ele>
        <time>2014-06-27T14:31:37Z</time>
      </trkpt>
      <trkpt lat="59.967122205014" lon="23.443962824663">
        <ele>23.4</ele>
        <time>2014-06-27T14:31:42Z</time>
      </trkpt>
      <trkpt lat="59.967147769809" lon="23.443997190453">
        <ele>23.4</ele>
        <time>2014-06-27T14:31:43Z</time>
      </trkpt>
      <trkpt lat="59.967207784213" lon="23.444127864274">
        <ele>23.4</ele>
        <time>2014-06-27T14:31:46Z</time>
      </trkpt>
      <trkpt lat="59.967323119157" lon="23.444611080809">
        <ele>23.4</ele>
        <time>2014-06-27T14:31:55Z</time>
      </trkpt>
      <trkpt lat="59.967334015627" lon="23.444665898435">
        <ele>23.4</ele>
        <time>2014-06-27T14:31:56Z</time>
      </trkpt>
      <trkpt lat="59.967358574594" lon="23.444965886636">
        <ele>23.4</ele>
        <time>2014-06-27T14:32:02Z</time>
      </trkpt>
      <trkpt lat="59.967364274286" lon="23.445158502698">
        <ele>23.4</ele>
        <time>2014-06-27T14:32:06Z</time>
      </trkpt>
      <trkpt lat="59.967362597906" lon="23.445384562541">
        <ele>23.4</ele>
        <time>2014-06-27T14:32:11Z</time>
      </trkpt>
      <trkpt lat="59.967357820223" lon="23.445488749558">
        <ele>23.4</ele>
        <time>2014-06-27T14:32:13Z</time>
      </trkpt>
      <trkpt lat="59.967346504658" lon="23.445676420299">
        <ele>23.4</ele>
        <time>2014-06-27T14:32:17Z</time>
      </trkpt>
      <trkpt lat="59.967344828278" lon="23.445722688387">
        <ele>23.4</ele>
        <time>2014-06-27T14:32:18Z</time>
      </trkpt>
      <trkpt lat="59.967325717546" lon="23.445994932499">
        <ele>23.4</ele>
        <time>2014-06-27T14:32:24Z</time>
      </trkpt>
      <trkpt lat="59.967322113329" lon="23.446213532451">
        <ele>23.4</ele>
        <time>2014-06-27T14:32:28Z</time>
      </trkpt>
      <trkpt lat="59.967320604587" lon="23.446274636502">
        <ele>23.4</ele>
        <time>2014-06-27T14:32:29Z</time>
      </trkpt>
      <trkpt lat="59.967342565165" lon="23.446576384902">
        <ele>23.4</ele>
        <time>2014-06-27T14:32:35Z</time>
      </trkpt>
      <trkpt lat="59.967382882104" lon="23.446842845503">
        <ele>23.4</ele>
        <time>2014-06-27T14:32:40Z</time>
      </trkpt>
      <trkpt lat="59.967438454101" lon="23.447019619774">
        <ele>23.4</ele>
        <time>2014-06-27T14:32:44Z</time>
      </trkpt>
      <trkpt lat="59.967355724748" lon="23.447363696769">
        <ele>23.4</ele>
        <time>2014-06-27T14:32:51Z</time>
      </trkpt>
      <trkpt lat="59.967263775305" lon="23.447613896484">
        <ele>23.4</ele>
        <time>2014-06-27T14:32:56Z</time>
      </trkpt>
      <trkpt lat="59.967174424251" lon="23.447829059857">
        <ele>22.8</ele>
        <time>2014-06-27T14:33:01Z</time>
      </trkpt>
      <trkpt lat="59.967075182555" lon="23.448101974521">
        <ele>22.2</ele>
        <time>2014-06-27T14:33:07Z</time>
      </trkpt>
      <trkpt lat="59.966979042162" lon="23.448343121784">
        <ele>21.6</ele>
        <time>2014-06-27T14:33:13Z</time>
      </trkpt>
      <trkpt lat="59.966878040267" lon="23.448596422802">
        <ele>20.6</ele>
        <time>2014-06-27T14:33:19Z</time>
      </trkpt>
      <trkpt lat="59.966776032544" lon="23.44882876907">
        <ele>19.6</ele>
        <time>2014-06-27T14:33:25Z</time>
      </trkpt>
      <trkpt lat="59.966687854956" lon="23.44908860797">
        <ele>18.4</ele>
        <time>2014-06-27T14:33:31Z</time>
      </trkpt>
      <trkpt lat="59.966585344319" lon="23.44933587402">
        <ele>17.8</ele>
        <time>2014-06-27T14:33:37Z</time>
      </trkpt>
      <trkpt lat="59.966486521718" lon="23.44958397826">
        <ele>17</ele>
        <time>2014-06-27T14:33:43Z</time>
      </trkpt>
      <trkpt lat="59.966402199804" lon="23.449789083353">
        <ele>16.2</ele>
        <time>2014-06-27T14:33:48Z</time>
      </trkpt>
      <trkpt lat="59.966371605869" lon="23.449885139927">
        <ele>16</ele>
        <time>2014-06-27T14:33:50Z</time>
      </trkpt>
      <trkpt lat="59.966414018283" lon="23.450063087664">
        <ele>15.8</ele>
        <time>2014-06-27T14:33:54Z</time>
      </trkpt>
      <trkpt lat="59.966439750716" lon="23.450097034359">
        <ele>15.6</ele>
        <time>2014-06-27T14:33:55Z</time>
      </trkpt>
      <trkpt lat="59.966598587721" lon="23.450270958784">
        <ele>14.4</ele>
        <time>2014-06-27T14:34:02Z</time>
      </trkpt>
      <trkpt lat="59.966743091677" lon="23.45037774419">
        <ele>13.8</ele>
        <time>2014-06-27T14:34:08Z</time>
      </trkpt>
      <trkpt lat="59.966898073008" lon="23.450491067478">
        <ele>13</ele>
        <time>2014-06-27T14:34:14Z</time>
      </trkpt>
      <trkpt lat="59.967017431264" lon="23.450591231183">
        <ele>12.2</ele>
        <time>2014-06-27T14:34:19Z</time>
      </trkpt>
      <trkpt lat="59.967118097883" lon="23.450652586691">
        <ele>11.8</ele>
        <time>2014-06-27T14:34:23Z</time>
      </trkpt>
      <trkpt lat="59.967289843014" lon="23.450770352386">
        <ele>11.4</ele>
        <time>2014-06-27T14:34:30Z</time>
      </trkpt>
      <trkpt lat="59.967437448273" lon="23.450867750064">
        <ele>10.8</ele>
        <time>2014-06-27T14:34:36Z</time>
      </trkpt>
      <trkpt lat="59.967543144032" lon="23.451025413603">
        <ele>10</ele>
        <time>2014-06-27T14:34:41Z</time>
      </trkpt>
      <trkpt lat="59.967689240549" lon="23.451239487329">
        <ele>9.6</ele>
        <time>2014-06-27T14:34:48Z</time>
      </trkpt>
      <trkpt lat="59.967805581321" lon="23.45143889273">
        <ele>9.2</ele>
        <time>2014-06-27T14:34:54Z</time>
      </trkpt>
      <trkpt lat="59.967886550475" lon="23.451634274819">
        <ele>9.2</ele>
        <time>2014-06-27T14:34:59Z</time>
      </trkpt>
      <trkpt lat="59.967978499918" lon="23.451819095714">
        <ele>9</ele>
        <time>2014-06-27T14:35:04Z</time>
      </trkpt>
      <trkpt lat="59.968098025812" lon="23.452064433927">
        <ele>8</ele>
        <time>2014-06-27T14:35:11Z</time>
      </trkpt>
      <trkpt lat="59.968186035762" lon="23.452257552903">
        <ele>7.6</ele>
        <time>2014-06-27T14:35:16Z</time>
      </trkpt>
      <trkpt lat="59.968291060969" lon="23.45249920308">
        <ele>7.4</ele>
        <time>2014-06-27T14:35:22Z</time>
      </trkpt>
      <trkpt lat="59.968386195534" lon="23.452709169675">
        <ele>7.2</ele>
        <time>2014-06-27T14:35:27Z</time>
      </trkpt>
      <trkpt lat="59.96847202619" lon="23.452922572849">
        <ele>7</ele>
        <time>2014-06-27T14:35:32Z</time>
      </trkpt>
      <trkpt lat="59.968591468265" lon="23.453206970716">
        <ele>7</ele>
        <time>2014-06-27T14:35:39Z</time>
      </trkpt>
      <trkpt lat="59.968699510956" lon="23.453507210374">
        <ele>7</ele>
        <time>2014-06-27T14:35:46Z</time>
      </trkpt>
      <trkpt lat="59.968779055187" lon="23.453700245531">
        <ele>7</ele>
        <time>2014-06-27T14:35:51Z</time>
      </trkpt>
      <trkpt lat="59.968877626331" lon="23.4539308316">
        <ele>6</ele>
        <time>2014-06-27T14:35:57Z</time>
      </trkpt>
      <trkpt lat="59.968958511666" lon="23.454116490685">
        <ele>5.6</ele>
        <time>2014-06-27T14:36:02Z</time>
      </trkpt>
      <trkpt lat="59.96905289186" lon="23.454296617716">
        <ele>5.2</ele>
        <time>2014-06-27T14:36:07Z</time>
      </trkpt>
      <trkpt lat="59.969172836849" lon="23.454563832688">
        <ele>5</ele>
        <time>2014-06-27T14:36:14Z</time>
      </trkpt>
      <trkpt lat="59.96928004135" lon="23.454812356023">
        <ele>5</ele>
        <time>2014-06-27T14:36:20Z</time>
      </trkpt>
      <trkpt lat="59.969379534503" lon="23.455041349531">
        <ele>5</ele>
        <time>2014-06-27T14:36:26Z</time>
      </trkpt>
      <trkpt lat="59.969499228035" lon="23.455320382982">
        <ele>5</ele>
        <time>2014-06-27T14:36:33Z</time>
      </trkpt>
      <trkpt lat="59.969585477786" lon="23.455525655713">
        <ele>4.8</ele>
        <time>2014-06-27T14:36:38Z</time>
      </trkpt>
      <trkpt lat="59.969695280676" lon="23.455681139958">
        <ele>4.8</ele>
        <time>2014-06-27T14:36:43Z</time>
      </trkpt>
      <trkpt lat="59.969839281718" lon="23.455740399991">
        <ele>4.8</ele>
        <time>2014-06-27T14:36:49Z</time>
      </trkpt>
      <trkpt lat="59.969946821495" lon="23.455703938726">
        <ele>4.8</ele>
        <time>2014-06-27T14:36:54Z</time>
      </trkpt>
      <trkpt lat="59.970094259116" lon="23.455611654007">
        <ele>4.8</ele>
        <time>2014-06-27T14:37:00Z</time>
      </trkpt>
      <trkpt lat="59.97023893071" lon="23.455534121432">
        <ele>4.8</ele>
        <time>2014-06-27T14:37:06Z</time>
      </trkpt>
      <trkpt lat="59.970383602304" lon="23.455513753415">
        <ele>4.8</ele>
        <time>2014-06-27T14:37:12Z</time>
      </trkpt>
      <trkpt lat="59.970561717679" lon="23.455609307075">
        <ele>4.8</ele>
        <time>2014-06-27T14:37:19Z</time>
      </trkpt>
      <trkpt lat="59.970707143644" lon="23.455734365023">
        <ele>4.8</ele>
        <time>2014-06-27T14:37:25Z</time>
      </trkpt>
      <trkpt lat="59.970733295172" lon="23.45575389485">
        <ele>4.8</ele>
        <time>2014-06-27T14:37:26Z</time>
      </trkpt>
      <trkpt lat="59.970840332035" lon="23.455866128491">
        <ele>4.8</ele>
        <time>2014-06-27T14:37:31Z</time>
      </trkpt>
      <trkpt lat="59.970948458545" lon="23.455992862819">
        <ele>4.8</ele>
        <time>2014-06-27T14:37:36Z</time>
      </trkpt>
      <trkpt lat="59.9710779589" lon="23.456126218848">
        <ele>4.8</ele>
        <time>2014-06-27T14:37:42Z</time>
      </trkpt>
      <trkpt lat="59.971241070674" lon="23.456280697265">
        <ele>4.8</ele>
        <time>2014-06-27T14:37:49Z</time>
      </trkpt>
      <trkpt lat="59.971414408366" lon="23.45644959255">
        <ele>4.8</ele>
        <time>2014-06-27T14:37:56Z</time>
      </trkpt>
      <trkpt lat="59.971557068304" lon="23.456576745973">
        <ele>5.8</ele>
        <time>2014-06-27T14:38:02Z</time>
      </trkpt>
      <trkpt lat="59.971695285835" lon="23.456721752843">
        <ele>6.2</ele>
        <time>2014-06-27T14:38:08Z</time>
      </trkpt>
      <trkpt lat="59.971834928289" lon="23.456852342845">
        <ele>6.6</ele>
        <time>2014-06-27T14:38:14Z</time>
      </trkpt>
      <trkpt lat="59.971881112558" lon="23.456897772743">
        <ele>6.6</ele>
        <time>2014-06-27T14:38:16Z</time>
      </trkpt>
      <trkpt lat="59.971993178561" lon="23.457021070492">
        <ele>6.8</ele>
        <time>2014-06-27T14:38:21Z</time>
      </trkpt>
      <trkpt lat="59.972116392491" lon="23.457137411264">
        <ele>7.6</ele>
        <time>2014-06-27T14:38:26Z</time>
      </trkpt>
      <trkpt lat="59.972245809027" lon="23.457273198044">
        <ele>8.2</ele>
        <time>2014-06-27T14:38:32Z</time>
      </trkpt>
      <trkpt lat="59.972397186141" lon="23.45745039141">
        <ele>8.6</ele>
        <time>2014-06-27T14:38:39Z</time>
      </trkpt>
      <trkpt lat="59.972509671239" lon="23.457570839313">
        <ele>8.8</ele>
        <time>2014-06-27T14:38:44Z</time>
      </trkpt>
      <trkpt lat="59.97268476913" lon="23.457742416806">
        <ele>8.8</ele>
        <time>2014-06-27T14:38:51Z</time>
      </trkpt>
      <trkpt lat="59.972865315256" lon="23.45794743808">
        <ele>9.4</ele>
        <time>2014-06-27T14:38:59Z</time>
      </trkpt>
      <trkpt lat="59.973101265741" lon="23.458232506499">
        <ele>10.6</ele>
        <time>2014-06-27T14:39:10Z</time>
      </trkpt>
      <trkpt lat="59.973196651763" lon="23.458334178946">
        <ele>10.8</ele>
        <time>2014-06-27T14:39:14Z</time>
      </trkpt>
      <trkpt lat="59.973301174056" lon="23.458487064802">
        <ele>11.8</ele>
        <time>2014-06-27T14:39:19Z</time>
      </trkpt>
      <trkpt lat="59.97338633416" lon="23.45861044637">
        <ele>12.2</ele>
        <time>2014-06-27T14:39:23Z</time>
      </trkpt>
      <trkpt lat="59.973527904451" lon="23.458845893941">
        <ele>13.6</ele>
        <time>2014-06-27T14:39:30Z</time>
      </trkpt>
      <trkpt lat="59.97364617306" lon="23.459036833623">
        <ele>14.2</ele>
        <time>2014-06-27T14:39:36Z</time>
      </trkpt>
      <trkpt lat="59.973749438068" lon="23.459186953452">
        <ele>15.4</ele>
        <time>2014-06-27T14:39:41Z</time>
      </trkpt>
      <trkpt lat="59.973886146857" lon="23.459345203724">
        <ele>16.2</ele>
        <time>2014-06-27T14:39:47Z</time>
      </trkpt>
      <trkpt lat="59.974005337475" lon="23.45954838098">
        <ele>17.4</ele>
        <time>2014-06-27T14:39:53Z</time>
      </trkpt>
      <trkpt lat="59.974019670524" lon="23.459585345159">
        <ele>17.6</ele>
        <time>2014-06-27T14:39:54Z</time>
      </trkpt>
      <trkpt lat="59.974111284691" lon="23.45976128124">
        <ele>18.2</ele>
        <time>2014-06-27T14:39:59Z</time>
      </trkpt>
      <trkpt lat="59.974231397318" lon="23.460013911706">
        <ele>19.8</ele>
        <time>2014-06-27T14:40:06Z</time>
      </trkpt>
      <trkpt lat="59.974324939322" lon="23.460248185811">
        <ele>20.4</ele>
        <time>2014-06-27T14:40:12Z</time>
      </trkpt>
      <trkpt lat="59.974412111082" lon="23.460452871809">
        <ele>20.8</ele>
        <time>2014-06-27T14:40:17Z</time>
      </trkpt>
      <trkpt lat="59.974527529845" lon="23.460763588842">
        <ele>22.2</ele>
        <time>2014-06-27T14:40:24Z</time>
      </trkpt>
      <trkpt lat="59.97459165138" lon="23.460982021156">
        <ele>22.6</ele>
        <time>2014-06-27T14:40:29Z</time>
      </trkpt>
      <trkpt lat="59.974658455123" lon="23.46121805546">
        <ele>23.6</ele>
        <time>2014-06-27T14:40:34Z</time>
      </trkpt>
      <trkpt lat="59.974707740695" lon="23.4614493959">
        <ele>24.4</ele>
        <time>2014-06-27T14:40:39Z</time>
      </trkpt>
      <trkpt lat="59.974794996274" lon="23.461660703599">
        <ele>25.4</ele>
        <time>2014-06-27T14:40:44Z</time>
      </trkpt>
      <trkpt lat="59.974853837212" lon="23.461783582253">
        <ele>26</ele>
        <time>2014-06-27T14:40:47Z</time>
      </trkpt>
      <trkpt lat="59.974907062277" lon="23.462077954581">
        <ele>27</ele>
        <time>2014-06-27T14:40:53Z</time>
      </trkpt>
      <trkpt lat="59.974998760263" lon="23.462306193718">
        <ele>28.2</ele>
        <time>2014-06-27T14:40:59Z</time>
      </trkpt>
      <trkpt lat="59.97501409914" lon="23.462318431292">
        <ele>28.4</ele>
        <time>2014-06-27T14:41:00Z</time>
      </trkpt>
      <trkpt lat="59.975114346664" lon="23.462258333069">
        <ele>28.8</ele>
        <time>2014-06-27T14:41:04Z</time>
      </trkpt>
      <trkpt lat="59.975261784285" lon="23.462124474126">
        <ele>29.2</ele>
        <time>2014-06-27T14:41:10Z</time>
      </trkpt>
      <trkpt lat="59.97542732681" lon="23.461972594098">
        <ele>29.4</ele>
        <time>2014-06-27T14:41:17Z</time>
      </trkpt>
      <trkpt lat="59.975543080849" lon="23.461876453705">
        <ele>29.6</ele>
        <time>2014-06-27T14:41:22Z</time>
      </trkpt>
      <trkpt lat="59.975708539555" lon="23.461756760173">
        <ele>29.6</ele>
        <time>2014-06-27T14:41:28Z</time>
      </trkpt>
      <trkpt lat="59.97582462887" lon="23.461694650294">
        <ele>29.6</ele>
        <time>2014-06-27T14:41:33Z</time>
      </trkpt>
      <trkpt lat="59.975991596318" lon="23.461610747475">
        <ele>29.6</ele>
        <time>2014-06-27T14:41:39Z</time>
      </trkpt>
      <trkpt lat="59.976101566846" lon="23.461530448873">
        <ele>29.6</ele>
        <time>2014-06-27T14:41:44Z</time>
      </trkpt>
      <trkpt lat="59.976284292266" lon="23.461438331792">
        <ele>29.6</ele>
        <time>2014-06-27T14:41:51Z</time>
      </trkpt>
      <trkpt lat="59.976408260567" lon="23.461367923832">
        <ele>29.6</ele>
        <time>2014-06-27T14:41:56Z</time>
      </trkpt>
      <trkpt lat="59.976554357084" lon="23.461282428452">
        <ele>29.6</ele>
        <time>2014-06-27T14:42:02Z</time>
      </trkpt>
      <trkpt lat="59.976672793331" lon="23.461219396564">
        <ele>29.6</ele>
        <time>2014-06-27T14:42:07Z</time>
      </trkpt>
      <trkpt lat="59.976808831568" lon="23.461155777943">
        <ele>29.6</ele>
        <time>2014-06-27T14:42:12Z</time>
      </trkpt>
      <trkpt lat="59.977000525621" lon="23.46106801945">
        <ele>29.6</ele>
        <time>2014-06-27T14:42:19Z</time>
      </trkpt>
      <trkpt lat="59.977177383711" lon="23.460977997844">
        <ele>30.2</ele>
        <time>2014-06-27T14:42:26Z</time>
      </trkpt>
      <trkpt lat="59.977304537134" lon="23.460913541033">
        <ele>31</ele>
        <time>2014-06-27T14:42:32Z</time>
      </trkpt>
      <trkpt lat="59.977473851514" lon="23.460826536911">
        <ele>31.4</ele>
        <time>2014-06-27T14:42:39Z</time>
      </trkpt>
      <trkpt lat="59.977647021568" lon="23.460740370979">
        <ele>31.6</ele>
        <time>2014-06-27T14:42:46Z</time>
      </trkpt>
      <trkpt lat="59.977777779208" lon="23.460691923597">
        <ele>31.6</ele>
        <time>2014-06-27T14:42:51Z</time>
      </trkpt>
      <trkpt lat="59.977868555185" lon="23.460808851102">
        <ele>32.2</ele>
        <time>2014-06-27T14:42:55Z</time>
      </trkpt>
      <trkpt lat="59.977978022799" lon="23.461117221203">
        <ele>33</ele>
        <time>2014-06-27T14:43:02Z</time>
      </trkpt>
      <trkpt lat="59.977994451323" lon="23.46115519121">
        <ele>33</ele>
        <time>2014-06-27T14:43:03Z</time>
      </trkpt>
      <trkpt lat="59.978125376601" lon="23.461319811726">
        <ele>33.4</ele>
        <time>2014-06-27T14:43:09Z</time>
      </trkpt>
      <trkpt lat="59.978198634407" lon="23.461416874128">
        <ele>33.6</ele>
        <time>2014-06-27T14:43:12Z</time>
      </trkpt>
      <trkpt lat="59.978249177264" lon="23.461466746433">
        <ele>33.6</ele>
        <time>2014-06-27T14:43:14Z</time>
      </trkpt>
      <trkpt lat="59.978344898562" lon="23.461598258444">
        <ele>33.6</ele>
        <time>2014-06-27T14:43:18Z</time>
      </trkpt>
      <trkpt lat="59.978459227678" lon="23.461725747143">
        <ele>33.6</ele>
        <time>2014-06-27T14:43:23Z</time>
      </trkpt>
      <trkpt lat="59.978592667526" lon="23.46186681452">
        <ele>33.8</ele>
        <time>2014-06-27T14:43:29Z</time>
      </trkpt>
      <trkpt lat="59.978695764896" lon="23.4619606918">
        <ele>34.2</ele>
        <time>2014-06-27T14:43:34Z</time>
      </trkpt>
      <trkpt lat="59.97878595414" lon="23.462046941551">
        <ele>34.6</ele>
        <time>2014-06-27T14:43:38Z</time>
      </trkpt>
      <trkpt lat="59.978896846677" lon="23.462227906772">
        <ele>35.2</ele>
        <time>2014-06-27T14:43:44Z</time>
      </trkpt>
      <trkpt lat="59.979001704246" lon="23.462385402673">
        <ele>35.4</ele>
        <time>2014-06-27T14:43:49Z</time>
      </trkpt>
      <trkpt lat="59.979143106899" lon="23.462541222194">
        <ele>35.6</ele>
        <time>2014-06-27T14:43:55Z</time>
      </trkpt>
      <trkpt lat="59.979270595598" lon="23.462680613191">
        <ele>36.6</ele>
        <time>2014-06-27T14:44:01Z</time>
      </trkpt>
      <trkpt lat="59.979416692115" lon="23.462806341691">
        <ele>37.2</ele>
        <time>2014-06-27T14:44:07Z</time>
      </trkpt>
      <trkpt lat="59.979596567689" lon="23.462950342733">
        <ele>37.6</ele>
        <time>2014-06-27T14:44:14Z</time>
      </trkpt>
      <trkpt lat="59.979711148262" lon="23.463065342401">
        <ele>37.8</ele>
        <time>2014-06-27T14:44:19Z</time>
      </trkpt>
      <trkpt lat="59.97982363336" lon="23.463130972678">
        <ele>38.6</ele>
        <time>2014-06-27T14:44:23Z</time>
      </trkpt>
      <trkpt lat="59.97995606738" lon="23.463255779169">
        <ele>39.2</ele>
        <time>2014-06-27T14:44:29Z</time>
      </trkpt>
      <trkpt lat="59.980059583845" lon="23.463403971161">
        <ele>39.4</ele>
        <time>2014-06-27T14:44:34Z</time>
      </trkpt>
      <trkpt lat="59.980162429758" lon="23.46357420755">
        <ele>40.4</ele>
        <time>2014-06-27T14:44:39Z</time>
      </trkpt>
      <trkpt lat="59.9802561394" lon="23.463705049009">
        <ele>41</ele>
        <time>2014-06-27T14:44:43Z</time>
      </trkpt>
      <trkpt lat="59.980393770198" lon="23.463934126336">
        <ele>41.4</ele>
        <time>2014-06-27T14:44:50Z</time>
      </trkpt>
      <trkpt lat="59.980509524237" lon="23.464147948605">
        <ele>41.6</ele>
        <time>2014-06-27T14:44:56Z</time>
      </trkpt>
      <trkpt lat="59.980586721536" lon="23.464306617972">
        <ele>41.8</ele>
        <time>2014-06-27T14:45:00Z</time>
      </trkpt>
      <trkpt lat="59.98068948363" lon="23.464463275683">
        <ele>41.8</ele>
        <time>2014-06-27T14:45:05Z</time>
      </trkpt>
      <trkpt lat="59.980736086994" lon="23.464505017545">
        <ele>41.8</ele>
        <time>2014-06-27T14:45:07Z</time>
      </trkpt>
      <trkpt lat="59.980870197394" lon="23.464577437161">
        <ele>41.8</ele>
        <time>2014-06-27T14:45:13Z</time>
      </trkpt>
      <trkpt lat="59.980898276759" lon="23.464586154337">
        <ele>41.8</ele>
        <time>2014-06-27T14:45:14Z</time>
      </trkpt>
      <trkpt lat="59.98103230334" lon="23.464612389684">
        <ele>41.8</ele>
        <time>2014-06-27T14:45:19Z</time>
      </trkpt>
      <trkpt lat="59.981183764273" lon="23.464619346661">
        <ele>41.8</ele>
        <time>2014-06-27T14:45:25Z</time>
      </trkpt>
      <trkpt lat="59.981344612934" lon="23.464644911456">
        <ele>41.8</ele>
        <time>2014-06-27T14:45:31Z</time>
      </trkpt>
      <trkpt lat="59.981419044206" lon="23.464638289755">
        <ele>41.4</ele>
        <time>2014-06-27T14:45:34Z</time>
      </trkpt>
      <trkpt lat="59.981534714426" lon="23.464644911456">
        <ele>40.8</ele>
        <time>2014-06-27T14:45:39Z</time>
      </trkpt>
      <trkpt lat="59.981558183746" lon="23.464644240904">
        <ele>40.6</ele>
        <time>2014-06-27T14:45:40Z</time>
      </trkpt>
      <trkpt lat="59.981741998813" lon="23.464638876488">
        <ele>40.2</ele>
        <time>2014-06-27T14:45:47Z</time>
      </trkpt>
      <trkpt lat="59.98192665207" lon="23.464630578407">
        <ele>39.8</ele>
        <time>2014-06-27T14:45:54Z</time>
      </trkpt>
      <trkpt lat="59.981952384503" lon="23.464622364145">
        <ele>39.6</ele>
        <time>2014-06-27T14:45:55Z</time>
      </trkpt>
      <trkpt lat="59.982026480499" lon="23.464402255451">
        <ele>38.8</ele>
        <time>2014-06-27T14:46:00Z</time>
      </trkpt>
      <trkpt lat="59.981992114709" lon="23.464125233656">
        <ele>38.4</ele>
        <time>2014-06-27T14:46:05Z</time>
      </trkpt>
      <trkpt lat="59.981948025915" lon="23.46385835396">
        <ele>38.2</ele>
        <time>2014-06-27T14:46:10Z</time>
      </trkpt>
      <trkpt lat="59.981918353989" lon="23.463638580542">
        <ele>38</ele>
        <time>2014-06-27T14:46:14Z</time>
      </trkpt>
      <trkpt lat="59.981883736742" lon="23.463363738041">
        <ele>38</ele>
        <time>2014-06-27T14:46:19Z</time>
      </trkpt>
      <trkpt lat="59.981871080073" lon="23.463249157468">
        <ele>38</ele>
        <time>2014-06-27T14:46:21Z</time>
      </trkpt>
      <trkpt lat="59.981824560528" lon="23.463028713498">
        <ele>37.6</ele>
        <time>2014-06-27T14:46:25Z</time>
      </trkpt>
      <trkpt lat="59.981783237761" lon="23.462698299">
        <ele>36.6</ele>
        <time>2014-06-27T14:46:31Z</time>
      </trkpt>
      <trkpt lat="59.98174560303" lon="23.462398813713">
        <ele>36.4</ele>
        <time>2014-06-27T14:46:36Z</time>
      </trkpt>
      <trkpt lat="59.981703609711" lon="23.462066136102">
        <ele>36</ele>
        <time>2014-06-27T14:46:42Z</time>
      </trkpt>
      <trkpt lat="59.981660442926" lon="23.461787857022">
        <ele>35</ele>
        <time>2014-06-27T14:46:47Z</time>
      </trkpt>
      <trkpt lat="59.981627082964" lon="23.461509326485">
        <ele>34.6</ele>
        <time>2014-06-27T14:46:52Z</time>
      </trkpt>
      <trkpt lat="59.981582407437" lon="23.461178744349">
        <ele>34.2</ele>
        <time>2014-06-27T14:46:58Z</time>
      </trkpt>
      <trkpt lat="59.981552400235" lon="23.460954109429">
        <ele>34</ele>
        <time>2014-06-27T14:47:02Z</time>
      </trkpt>
      <trkpt lat="59.981505545414" lon="23.460694857262">
        <ele>33.8</ele>
        <time>2014-06-27T14:47:07Z</time>
      </trkpt>
      <trkpt lat="59.981471850176" lon="23.460417835467">
        <ele>33.6</ele>
        <time>2014-06-27T14:47:12Z</time>
      </trkpt>
      <trkpt lat="59.981429018667" lon="23.460104687683">
        <ele>32.6</ele>
        <time>2014-06-27T14:47:18Z</time>
      </trkpt>
      <trkpt lat="59.981402531863" lon="23.459906874843">
        <ele>32.4</ele>
        <time>2014-06-27T14:47:22Z</time>
      </trkpt>
      <trkpt lat="59.981380319828" lon="23.459707050347">
        <ele>32.2</ele>
        <time>2014-06-27T14:47:26Z</time>
      </trkpt>
      <trkpt lat="59.981345199667" lon="23.459459784297">
        <ele>32</ele>
        <time>2014-06-27T14:47:31Z</time>
      </trkpt>
      <trkpt lat="59.981317036483" lon="23.459206650917">
        <ele>31.8</ele>
        <time>2014-06-27T14:47:36Z</time>
      </trkpt>
      <trkpt lat="59.981311839705" lon="23.459148815807">
        <ele>31.8</ele>
        <time>2014-06-27T14:47:37Z</time>
      </trkpt>
      <trkpt lat="59.981283005969" lon="23.458901717395">
        <ele>31</ele>
        <time>2014-06-27T14:47:42Z</time>
      </trkpt>
      <trkpt lat="59.98124939455" lon="23.458746149331">
        <ele>30.6</ele>
        <time>2014-06-27T14:47:45Z</time>
      </trkpt>
      <trkpt lat="59.981202120634" lon="23.458426798941">
        <ele>30.2</ele>
        <time>2014-06-27T14:47:51Z</time>
      </trkpt>
      <trkpt lat="59.981152332148" lon="23.458123793256">
        <ele>30</ele>
        <time>2014-06-27T14:47:57Z</time>
      </trkpt>
      <trkpt lat="59.981104052404" lon="23.457861691243">
        <ele>29.2</ele>
        <time>2014-06-27T14:48:02Z</time>
      </trkpt>
      <trkpt lat="59.981074631935" lon="23.457593135167">
        <ele>28.6</ele>
        <time>2014-06-27T14:48:07Z</time>
      </trkpt>
      <trkpt lat="59.981041355792" lon="23.457326004014">
        <ele>28</ele>
        <time>2014-06-27T14:48:12Z</time>
      </trkpt>
      <trkpt lat="59.981003134328" lon="23.457013945877">
        <ele>27.4</ele>
        <time>2014-06-27T14:48:18Z</time>
      </trkpt>
      <trkpt lat="59.980951334186" lon="23.456647740666">
        <ele>26.4</ele>
        <time>2014-06-27T14:48:25Z</time>
      </trkpt>
      <trkpt lat="59.980914537645" lon="23.456451604206">
        <ele>26</ele>
        <time>2014-06-27T14:48:29Z</time>
      </trkpt>
      <trkpt lat="59.980873382516" lon="23.456188161089">
        <ele>25</ele>
        <time>2014-06-27T14:48:34Z</time>
      </trkpt>
      <trkpt lat="59.980838262355" lon="23.455921784307">
        <ele>24.4</ele>
        <time>2014-06-27T14:48:39Z</time>
      </trkpt>
      <trkpt lat="59.980783780005" lon="23.455550549956">
        <ele>23.8</ele>
        <time>2014-06-27T14:48:46Z</time>
      </trkpt>
      <trkpt lat="59.980745893817" lon="23.454908747873">
        <ele>22.2</ele>
        <time>2014-06-27T14:48:58Z</time>
      </trkpt>
      <trkpt lat="59.980695099503" lon="23.45457791428">
        <ele>21.8</ele>
        <time>2014-06-27T14:49:04Z</time>
      </trkpt>
      <trkpt lat="59.980652519451" lon="23.454388231883">
        <ele>21.6</ele>
        <time>2014-06-27T14:49:08Z</time>
      </trkpt>
      <trkpt lat="59.980591834495" lon="23.454090758252">
        <ele>21.6</ele>
        <time>2014-06-27T14:49:14Z</time>
      </trkpt>
      <trkpt lat="59.980556462877" lon="23.453841564365">
        <ele>21.6</ele>
        <time>2014-06-27T14:49:19Z</time>
      </trkpt>
      <trkpt lat="59.980495777921" lon="23.453522968346">
        <ele>21.4</ele>
        <time>2014-06-27T14:49:26Z</time>
      </trkpt>
      <trkpt lat="59.980434338594" lon="23.453278552142">
        <ele>21.4</ele>
        <time>2014-06-27T14:49:31Z</time>
      </trkpt>
      <trkpt lat="59.980359152951" lon="23.45297613319">
        <ele>21.4</ele>
        <time>2014-06-27T14:49:37Z</time>
      </trkpt>
      <trkpt lat="59.980297126891" lon="23.452731716986">
        <ele>21.4</ele>
        <time>2014-06-27T14:49:42Z</time>
      </trkpt>
      <trkpt lat="59.980223952904" lon="23.452381772661">
        <ele>21.4</ele>
        <time>2014-06-27T14:49:49Z</time>
      </trkpt>
      <trkpt lat="59.980167039803" lon="23.452134674249">
        <ele>21.4</ele>
        <time>2014-06-27T14:49:54Z</time>
      </trkpt>
      <trkpt lat="59.98009772149" lon="23.451772073255">
        <ele>21.4</ele>
        <time>2014-06-27T14:50:01Z</time>
      </trkpt>
      <trkpt lat="59.980035946887" lon="23.451580379202">
        <ele>21.4</ele>
        <time>2014-06-27T14:50:05Z</time>
      </trkpt>
      <trkpt lat="59.979978363234" lon="23.451321713768">
        <ele>21</ele>
        <time>2014-06-27T14:50:10Z</time>
      </trkpt>
      <trkpt lat="59.979916085717" lon="23.45100890126">
        <ele>20.2</ele>
        <time>2014-06-27T14:50:16Z</time>
      </trkpt>
      <trkpt lat="59.979848276146" lon="23.450754007681">
        <ele>20</ele>
        <time>2014-06-27T14:50:21Z</time>
      </trkpt>
      <trkpt lat="59.979784322249" lon="23.450506490174">
        <ele>19.8</ele>
        <time>2014-06-27T14:50:26Z</time>
      </trkpt>
      <trkpt lat="59.979748028622" lon="23.450359890743">
        <ele>19.6</ele>
        <time>2014-06-27T14:50:29Z</time>
      </trkpt>
      <trkpt lat="59.979714081927" lon="23.45010449425">
        <ele>19.6</ele>
        <time>2014-06-27T14:50:34Z</time>
      </trkpt>
      <trkpt lat="59.97970712495" lon="23.450050430995">
        <ele>19.6</ele>
        <time>2014-06-27T14:50:35Z</time>
      </trkpt>
      <trkpt lat="59.979669741676" lon="23.449763099463">
        <ele>19.4</ele>
        <time>2014-06-27T14:50:40Z</time>
      </trkpt>
      <trkpt lat="59.97963420242" lon="23.449534860326">
        <ele>19.4</ele>
        <time>2014-06-27T14:50:44Z</time>
      </trkpt>
      <trkpt lat="59.979579049518" lon="23.449204529647">
        <ele>19.4</ele>
        <time>2014-06-27T14:50:50Z</time>
      </trkpt>
      <trkpt lat="59.979532949068" lon="23.448940918892">
        <ele>19.4</ele>
        <time>2014-06-27T14:50:55Z</time>
      </trkpt>
      <trkpt lat="59.979489530826" lon="23.448633135524">
        <ele>19.4</ele>
        <time>2014-06-27T14:51:01Z</time>
      </trkpt>
      <trkpt lat="59.979447537507" lon="23.448375392099">
        <ele>19.4</ele>
        <time>2014-06-27T14:51:06Z</time>
      </trkpt>
      <trkpt lat="59.979399006306" lon="23.448065094161">
        <ele>19.4</ele>
        <time>2014-06-27T14:51:12Z</time>
      </trkpt>
      <trkpt lat="59.97937436352" lon="23.447867868054">
        <ele>18.8</ele>
        <time>2014-06-27T14:51:16Z</time>
      </trkpt>
      <trkpt lat="59.979350810381" lon="23.447607107145">
        <ele>18.2</ele>
        <time>2014-06-27T14:51:21Z</time>
      </trkpt>
      <trkpt lat="59.979325580862" lon="23.447404181346">
        <ele>18</ele>
        <time>2014-06-27T14:51:25Z</time>
      </trkpt>
      <trkpt lat="59.979302195361" lon="23.447189939982">
        <ele>17.8</ele>
        <time>2014-06-27T14:51:29Z</time>
      </trkpt>
      <trkpt lat="59.979269673589" lon="23.446993384427">
        <ele>17.6</ele>
        <time>2014-06-27T14:51:33Z</time>
      </trkpt>
      <trkpt lat="59.979232122677" lon="23.446787105868">
        <ele>17.6</ele>
        <time>2014-06-27T14:51:37Z</time>
      </trkpt>
      <trkpt lat="59.97919079991" lon="23.446510503168">
        <ele>17.4</ele>
        <time>2014-06-27T14:51:42Z</time>
      </trkpt>
      <trkpt lat="59.979181998915" lon="23.446456523732">
        <ele>17.4</ele>
        <time>2014-06-27T14:51:43Z</time>
      </trkpt>
      <trkpt lat="59.97912709747" lon="23.446102639914">
        <ele>17.4</ele>
        <time>2014-06-27T14:51:49Z</time>
      </trkpt>
      <trkpt lat="59.979080661744" lon="23.445715060858">
        <ele>17.4</ele>
        <time>2014-06-27T14:51:56Z</time>
      </trkpt>
      <trkpt lat="59.979040847719" lon="23.445394453183">
        <ele>17.4</ele>
        <time>2014-06-27T14:52:02Z</time>
      </trkpt>
      <trkpt lat="59.979016707847" lon="23.445129249867">
        <ele>17.4</ele>
        <time>2014-06-27T14:52:07Z</time>
      </trkpt>
      <trkpt lat="59.97900053078" lon="23.44478534051">
        <ele>17.4</ele>
        <time>2014-06-27T14:52:13Z</time>
      </trkpt>
      <trkpt lat="59.979000698418" lon="23.444447466121">
        <ele>17.4</ele>
        <time>2014-06-27T14:52:19Z</time>
      </trkpt>
      <trkpt lat="59.978996256011" lon="23.444169689955">
        <ele>17.4</ele>
        <time>2014-06-27T14:52:24Z</time>
      </trkpt>
      <trkpt lat="59.978986952102" lon="23.443891662332">
        <ele>17.4</ele>
        <time>2014-06-27T14:52:29Z</time>
      </trkpt>
      <trkpt lat="59.978993489984" lon="23.443564852051">
        <ele>17.4</ele>
        <time>2014-06-27T14:52:35Z</time>
      </trkpt>
      <trkpt lat="59.979008493585" lon="23.443300319287">
        <ele>17.2</ele>
        <time>2014-06-27T14:52:40Z</time>
      </trkpt>
      <trkpt lat="59.978991394509" lon="23.443021118198">
        <ele>16.4</ele>
        <time>2014-06-27T14:52:45Z</time>
      </trkpt>
      <trkpt lat="59.978979408392" lon="23.442623480862">
        <ele>16</ele>
        <time>2014-06-27T14:52:52Z</time>
      </trkpt>
      <trkpt lat="59.978983683161" lon="23.442507643004">
        <ele>15.8</ele>
        <time>2014-06-27T14:52:54Z</time>
      </trkpt>
      <trkpt lat="59.978955687615" lon="23.442099360655">
        <ele>15.6</ele>
        <time>2014-06-27T14:53:02Z</time>
      </trkpt>
      <trkpt lat="59.978954178873" lon="23.441826362172">
        <ele>15.4</ele>
        <time>2014-06-27T14:53:07Z</time>
      </trkpt>
      <trkpt lat="59.978957028719" lon="23.441545317065">
        <ele>15</ele>
        <time>2014-06-27T14:53:12Z</time>
      </trkpt>
      <trkpt lat="59.978947808629" lon="23.441197216758">
        <ele>14.2</ele>
        <time>2014-06-27T14:53:18Z</time>
      </trkpt>
      <trkpt lat="59.978951161389" lon="23.440911729244">
        <ele>13.8</ele>
        <time>2014-06-27T14:53:23Z</time>
      </trkpt>
      <trkpt lat="59.97894688662" lon="23.440686339953">
        <ele>13.8</ele>
        <time>2014-06-27T14:53:27Z</time>
      </trkpt>
      <trkpt lat="59.978945796973" lon="23.440468159096">
        <ele>13.6</ele>
        <time>2014-06-27T14:53:31Z</time>
      </trkpt>
      <trkpt lat="59.978970607397" lon="23.440205302712">
        <ele>13.4</ele>
        <time>2014-06-27T14:53:36Z</time>
      </trkpt>
      <trkpt lat="59.979011175793" lon="23.439853682007">
        <ele>13.4</ele>
        <time>2014-06-27T14:53:43Z</time>
      </trkpt>
      <trkpt lat="59.979055683682" lon="23.439594765116">
        <ele>13.4</ele>
        <time>2014-06-27T14:53:48Z</time>
      </trkpt>
      <trkpt lat="59.979108154376" lon="23.439368034721">
        <ele>13.4</ele>
        <time>2014-06-27T14:53:53Z</time>
      </trkpt>
      <trkpt lat="59.979163642554" lon="23.43908732489">
        <ele>13.4</ele>
        <time>2014-06-27T14:53:59Z</time>
      </trkpt>
      <trkpt lat="59.979203205122" lon="23.438899151235">
        <ele>14</ele>
        <time>2014-06-27T14:54:03Z</time>
      </trkpt>
      <trkpt lat="59.97920672552" lon="23.438862019418">
        <ele>14</ele>
        <time>2014-06-27T14:54:04Z</time>
      </trkpt>
      <trkpt lat="59.979197840706" lon="23.438815416054">
        <ele>14.6</ele>
        <time>2014-06-27T14:54:09Z</time>
      </trkpt>
      <trkpt lat="59.979180154897" lon="23.438792952562">
        <ele>14.6</ele>
        <time>2014-06-27T14:54:10Z</time>
      </trkpt>
      <trkpt lat="59.979127013651" lon="23.438615088644">
        <ele>15</ele>
        <time>2014-06-27T14:54:14Z</time>
      </trkpt>
      <trkpt lat="59.979144196546" lon="23.438473099258">
        <ele>15</ele>
        <time>2014-06-27T14:54:17Z</time>
      </trkpt>
      <trkpt lat="59.979171102445" lon="23.43832876294">
        <ele>15.2</ele>
        <time>2014-06-27T14:54:20Z</time>
      </trkpt>
      <trkpt lat="59.979202199294" lon="23.438198508214">
        <ele>15.4</ele>
        <time>2014-06-27T14:54:23Z</time>
      </trkpt>
      <trkpt lat="59.979215694153" lon="23.437939758961">
        <ele>16.2</ele>
        <time>2014-06-27T14:54:28Z</time>
      </trkpt>
      <trkpt lat="59.979218208723" lon="23.437881504756">
        <ele>16.4</ele>
        <time>2014-06-27T14:54:29Z</time>
      </trkpt>
      <trkpt lat="59.979197086335" lon="23.437658713854">
        <ele>16.8</ele>
        <time>2014-06-27T14:54:33Z</time>
      </trkpt>
      <trkpt lat="59.97917990344" lon="23.437612864861">
        <ele>16.8</ele>
        <time>2014-06-27T14:54:34Z</time>
      </trkpt>
      <trkpt lat="59.979083176314" lon="23.437381189145">
        <ele>17</ele>
        <time>2014-06-27T14:54:39Z</time>
      </trkpt>
      <trkpt lat="59.978967757551" lon="23.437103664436">
        <ele>17.2</ele>
        <time>2014-06-27T14:54:45Z</time>
      </trkpt>
      <trkpt lat="59.978829120925" lon="23.43681582999">
        <ele>17.4</ele>
        <time>2014-06-27T14:54:51Z</time>
      </trkpt>
      <trkpt lat="59.978747313581" lon="23.436637714615">
        <ele>17.4</ele>
        <time>2014-06-27T14:54:55Z</time>
      </trkpt>
      <trkpt lat="59.978638767976" lon="23.436338145509">
        <ele>17.4</ele>
        <time>2014-06-27T14:55:01Z</time>
      </trkpt>
      <trkpt lat="59.978525444688" lon="23.436066823406">
        <ele>17.4</ele>
        <time>2014-06-27T14:55:07Z</time>
      </trkpt>
      <trkpt lat="59.97844397262" lon="23.435836488794">
        <ele>17.4</ele>
        <time>2014-06-27T14:55:12Z</time>
      </trkpt>
      <trkpt lat="59.978394770867" lon="23.435661307084">
        <ele>17.4</ele>
        <time>2014-06-27T14:55:16Z</time>
      </trkpt>
      <trkpt lat="59.97832746421" lon="23.435486879745">
        <ele>17.4</ele>
        <time>2014-06-27T14:55:20Z</time>
      </trkpt>
      <trkpt lat="59.978258900268" lon="23.435287893439">
        <ele>17.4</ele>
        <time>2014-06-27T14:55:24Z</time>
      </trkpt>
      <trkpt lat="59.978175081268" lon="23.435003579391">
        <ele>17.4</ele>
        <time>2014-06-27T14:55:30Z</time>
      </trkpt>
      <trkpt lat="59.978101236729" lon="23.434769556743">
        <ele>17.4</ele>
        <time>2014-06-27T14:55:35Z</time>
      </trkpt>
      <trkpt lat="59.978032840425" lon="23.434546682022">
        <ele>17.4</ele>
        <time>2014-06-27T14:55:40Z</time>
      </trkpt>
      <trkpt lat="59.97790334007" lon="23.434314000478">
        <ele>16.4</ele>
        <time>2014-06-27T14:55:47Z</time>
      </trkpt>
      <trkpt lat="59.977768726756" lon="23.434122976977">
        <ele>15.8</ele>
        <time>2014-06-27T14:55:53Z</time>
      </trkpt>
      <trkpt lat="59.977637214745" lon="23.433890463071">
        <ele>15.6</ele>
        <time>2014-06-27T14:55:59Z</time>
      </trkpt>
      <trkpt lat="59.977558760161" lon="23.43366088283">
        <ele>15.6</ele>
        <time>2014-06-27T14:56:04Z</time>
      </trkpt>
      <trkpt lat="59.977556748505" lon="23.43354940356">
        <ele>15.6</ele>
        <time>2014-06-27T14:56:06Z</time>
      </trkpt>
      <trkpt lat="59.977469828202" lon="23.433366342864">
        <ele>15.4</ele>
        <time>2014-06-27T14:56:11Z</time>
      </trkpt>
      <trkpt lat="59.977445353054" lon="23.433329294866">
        <ele>15.4</ele>
        <time>2014-06-27T14:56:12Z</time>
      </trkpt>
      <trkpt lat="59.977295568501" lon="23.433135253881">
        <ele>15.4</ele>
        <time>2014-06-27T14:56:18Z</time>
      </trkpt>
      <trkpt lat="59.977177886625" lon="23.43297105246">
        <ele>14.8</ele>
        <time>2014-06-27T14:56:23Z</time>
      </trkpt>
      <trkpt lat="59.97706515007" lon="23.432816071129">
        <ele>14.2</ele>
        <time>2014-06-27T14:56:28Z</time>
      </trkpt>
      <trkpt lat="59.976925088521" lon="23.432621359592">
        <ele>13.8</ele>
        <time>2014-06-27T14:56:34Z</time>
      </trkpt>
      <trkpt lat="59.976804892075" lon="23.432460510931">
        <ele>13.6</ele>
        <time>2014-06-27T14:56:39Z</time>
      </trkpt>
      <trkpt lat="59.976647060898" lon="23.432236881839">
        <ele>13</ele>
        <time>2014-06-27T14:56:46Z</time>
      </trkpt>
      <trkpt lat="59.976544131166" lon="23.432104699276">
        <ele>12.2</ele>
        <time>2014-06-27T14:56:51Z</time>
      </trkpt>
      <trkpt lat="59.976481434554" lon="23.431864054927">
        <ele>11.8</ele>
        <time>2014-06-27T14:56:56Z</time>
      </trkpt>
      <trkpt lat="59.976456959406" lon="23.431585608209">
        <ele>11.6</ele>
        <time>2014-06-27T14:57:01Z</time>
      </trkpt>
      <trkpt lat="59.976500126191" lon="23.431247398544">
        <ele>11</ele>
        <time>2014-06-27T14:57:07Z</time>
      </trkpt>
      <trkpt lat="59.976505909702" lon="23.431191155995">
        <ele>10.8</ele>
        <time>2014-06-27T14:57:08Z</time>
      </trkpt>
      <trkpt lat="59.976484200581" lon="23.430972891319">
        <ele>10.2</ele>
        <time>2014-06-27T14:57:12Z</time>
      </trkpt>
      <trkpt lat="59.97643734576" lon="23.430863591343">
        <ele>10</ele>
        <time>2014-06-27T14:57:15Z</time>
      </trkpt>
      <trkpt lat="59.976275994185" lon="23.430743059621">
        <ele>9.6</ele>
        <time>2014-06-27T14:57:22Z</time>
      </trkpt>
      <trkpt lat="59.976160407784" lon="23.430815563056">
        <ele>8.8</ele>
        <time>2014-06-27T14:57:27Z</time>
      </trkpt>
      <trkpt lat="59.976034092551" lon="23.430907763956">
        <ele>8.2</ele>
        <time>2014-06-27T14:57:32Z</time>
      </trkpt>
      <trkpt lat="59.975882044885" lon="23.431002227969">
        <ele>7.6</ele>
        <time>2014-06-27T14:57:38Z</time>
      </trkpt>
      <trkpt lat="59.9757466772" lon="23.431055704491">
        <ele>7.4</ele>
        <time>2014-06-27T14:57:44Z</time>
      </trkpt>
      <trkpt lat="59.975616254836" lon="23.431097027258">
        <ele>7.4</ele>
        <time>2014-06-27T14:57:49Z</time>
      </trkpt>
      <trkpt lat="59.975450460854" lon="23.431114293972">
        <ele>7.2</ele>
        <time>2014-06-27T14:57:55Z</time>
      </trkpt>
      <trkpt lat="59.975311069857" lon="23.431139691129">
        <ele>7.2</ele>
        <time>2014-06-27T14:58:00Z</time>
      </trkpt>
      <trkpt lat="59.975188358841" lon="23.431149833228">
        <ele>7.2</ele>
        <time>2014-06-27T14:58:05Z</time>
      </trkpt>
      <trkpt lat="59.975049973672" lon="23.431128291745">
        <ele>7.2</ele>
        <time>2014-06-27T14:58:10Z</time>
      </trkpt>
      <trkpt lat="59.974913013426" lon="23.431122508234">
        <ele>7.2</ele>
        <time>2014-06-27T14:58:15Z</time>
      </trkpt>
      <trkpt lat="59.974801366518" lon="23.431069702264">
        <ele>7.2</ele>
        <time>2014-06-27T14:58:19Z</time>
      </trkpt>
      <trkpt lat="59.974720984097" lon="23.430845654077">
        <ele>7.2</ele>
        <time>2014-06-27T14:58:24Z</time>
      </trkpt>
      <trkpt lat="59.974645546997" lon="23.430522028918">
        <ele>7.2</ele>
        <time>2014-06-27T14:58:30Z</time>
      </trkpt>
      <trkpt lat="59.974612187035" lon="23.430436282081">
        <ele>7.2</ele>
        <time>2014-06-27T14:58:32Z</time>
      </trkpt>
      <trkpt lat="59.97447179021" lon="23.430244504209">
        <ele>7.2</ele>
        <time>2014-06-27T14:58:38Z</time>
      </trkpt>
      <trkpt lat="59.974361065311" lon="23.430065634463">
        <ele>7.2</ele>
        <time>2014-06-27T14:58:43Z</time>
      </trkpt>
      <trkpt lat="59.974203317953" lon="23.429817865499">
        <ele>7.2</ele>
        <time>2014-06-27T14:58:50Z</time>
      </trkpt>
      <trkpt lat="59.974055293599" lon="23.429617202813">
        <ele>7.2</ele>
        <time>2014-06-27T14:58:56Z</time>
      </trkpt>
      <trkpt lat="59.973998129041" lon="23.429427017502">
        <ele>7.2</ele>
        <time>2014-06-27T14:59:00Z</time>
      </trkpt>
      <trkpt lat="59.973842477158" lon="23.429252925439">
        <ele>7.2</ele>
        <time>2014-06-27T14:59:06Z</time>
      </trkpt>
      <trkpt lat="59.973730075879" lon="23.429111438967">
        <ele>7.2</ele>
        <time>2014-06-27T14:59:11Z</time>
      </trkpt>
      <trkpt lat="59.973585236647" lon="23.428920415466">
        <ele>7.2</ele>
        <time>2014-06-27T14:59:17Z</time>
      </trkpt>
      <trkpt lat="59.973473841196" lon="23.428766188506">
        <ele>7.2</ele>
        <time>2014-06-27T14:59:22Z</time>
      </trkpt>
      <trkpt lat="59.973362613383" lon="23.428592683176">
        <ele>7.2</ele>
        <time>2014-06-27T14:59:27Z</time>
      </trkpt>
      <trkpt lat="59.973244260955" lon="23.428511797841">
        <ele>7.2</ele>
        <time>2014-06-27T14:59:32Z</time>
      </trkpt>
      <trkpt lat="59.97305273454" lon="23.428473157282">
        <ele>7.2</ele>
        <time>2014-06-27T14:59:40Z</time>
      </trkpt>
      <trkpt lat="59.97300244314" lon="23.428469804522">
        <ele>7.2</ele>
        <time>2014-06-27T14:59:42Z</time>
      </trkpt>
      <trkpt lat="59.972922228357" lon="23.4284917651">
        <ele>7.2</ele>
        <time>2014-06-27T14:59:45Z</time>
      </trkpt>
      <trkpt lat="59.972747298104" lon="23.428624618215">
        <ele>7.2</ele>
        <time>2014-06-27T14:59:52Z</time>
      </trkpt>
      <trkpt lat="59.972558956811" lon="23.428725368653">
        <ele>7.2</ele>
        <time>2014-06-27T14:59:59Z</time>
      </trkpt>
      <trkpt lat="59.972391989363" lon="23.428761327004">
        <ele>7.2</ele>
        <time>2014-06-27T15:00:05Z</time>
      </trkpt>
      <trkpt lat="59.97219694255" lon="23.428760740271">
        <ele>7.2</ele>
        <time>2014-06-27T15:00:12Z</time>
      </trkpt>
      <trkpt lat="59.972066520186" lon="23.428781862659">
        <ele>7.2</ele>
        <time>2014-06-27T15:00:17Z</time>
      </trkpt>
      <trkpt lat="59.971914388701" lon="23.428825113263">
        <ele>7.2</ele>
        <time>2014-06-27T15:00:23Z</time>
      </trkpt>
      <trkpt lat="59.971767621632" lon="23.428902142924">
        <ele>7.2</ele>
        <time>2014-06-27T15:00:29Z</time>
      </trkpt>
      <trkpt lat="59.971674833999" lon="23.428982525345">
        <ele>7.2</ele>
        <time>2014-06-27T15:00:33Z</time>
      </trkpt>
      <trkpt lat="59.971557655037" lon="23.429127867491">
        <ele>7.2</ele>
        <time>2014-06-27T15:00:38Z</time>
      </trkpt>
      <trkpt lat="59.971494706968" lon="23.429289638161">
        <ele>7.2</ele>
        <time>2014-06-27T15:00:42Z</time>
      </trkpt>
      <trkpt lat="59.971526055274" lon="23.429625752351">
        <ele>7.2</ele>
        <time>2014-06-27T15:00:48Z</time>
      </trkpt>
      <trkpt lat="59.971621860391" lon="23.429981144911">
        <ele>7.2</ele>
        <time>2014-06-27T15:00:55Z</time>
      </trkpt>
      <trkpt lat="59.97169151398" lon="23.430221034889">
        <ele>7.2</ele>
        <time>2014-06-27T15:01:00Z</time>
      </trkpt>
      <trkpt lat="59.97170157226" lon="23.430436533538">
        <ele>7.2</ele>
        <time>2014-06-27T15:01:04Z</time>
      </trkpt>
      <trkpt lat="59.971695369654" lon="23.430738533395">
        <ele>7.2</ele>
        <time>2014-06-27T15:01:09Z</time>
      </trkpt>
      <trkpt lat="59.97169570493" lon="23.43078924389">
        <ele>7.2</ele>
        <time>2014-06-27T15:01:10Z</time>
      </trkpt>
      <trkpt lat="59.971661171502" lon="23.431156790205">
        <ele>7.2</ele>
        <time>2014-06-27T15:01:17Z</time>
      </trkpt>
      <trkpt lat="59.971658573113" lon="23.431210685822">
        <ele>7.2</ele>
        <time>2014-06-27T15:01:18Z</time>
      </trkpt>
      <trkpt lat="59.971595373587" lon="23.431649143011">
        <ele>7.2</ele>
        <time>2014-06-27T15:01:25Z</time>
      </trkpt>
      <trkpt lat="59.9715892548" lon="23.431705804655">
        <ele>7.2</ele>
        <time>2014-06-27T15:01:26Z</time>
      </trkpt>
      <trkpt lat="59.971593948664" lon="23.431874364664">
        <ele>7.2</ele>
        <time>2014-06-27T15:01:29Z</time>
      </trkpt>
      <trkpt lat="59.9715473453" lon="23.432187177172">
        <ele>7.2</ele>
        <time>2014-06-27T15:01:35Z</time>
      </trkpt>
      <trkpt lat="59.971547512938" lon="23.432233864355">
        <ele>7.2</ele>
        <time>2014-06-27T15:01:36Z</time>
      </trkpt>
      <trkpt lat="59.971590512085" lon="23.432350540403">
        <ele>7.2</ele>
        <time>2014-06-27T15:01:39Z</time>
      </trkpt>
      <trkpt lat="59.971712301092" lon="23.432631669329">
        <ele>7.2</ele>
        <time>2014-06-27T15:01:46Z</time>
      </trkpt>
      <trkpt lat="59.971765861433" lon="23.432756727277">
        <ele>7.2</ele>
        <time>2014-06-27T15:01:49Z</time>
      </trkpt>
      <trkpt lat="59.971838783963" lon="23.432696293778">
        <ele>7.2</ele>
        <time>2014-06-27T15:01:53Z</time>
      </trkpt>
      <trkpt lat="59.971961914074" lon="23.432845910693">
        <ele>7.2</ele>
        <time>2014-06-27T15:01:58Z</time>
      </trkpt>
      <trkpt lat="59.972024023953" lon="23.43305068051">
        <ele>7.2</ele>
        <time>2014-06-27T15:02:02Z</time>
      </trkpt>
      <trkpt lat="59.972044224332" lon="23.433352680367">
        <ele>7.2</ele>
        <time>2014-06-27T15:02:07Z</time>
      </trkpt>
      <trkpt lat="59.972130557902" lon="23.433498441608">
        <ele>7.2</ele>
        <time>2014-06-27T15:02:11Z</time>
      </trkpt>
      <trkpt lat="59.972173892325" lon="23.433581003323">
        <ele>7.2</ele>
        <time>2014-06-27T15:02:13Z</time>
      </trkpt>
      <trkpt lat="59.972219154585" lon="23.433893648193">
        <ele>7.2</ele>
        <time>2014-06-27T15:02:19Z</time>
      </trkpt>
      <trkpt lat="59.972265338854" lon="23.433971096949">
        <ele>7.2</ele>
        <time>2014-06-27T15:02:21Z</time>
      </trkpt>
      <trkpt lat="59.972416799787" lon="23.434221129026">
        <ele>7.2</ele>
        <time>2014-06-27T15:02:28Z</time>
      </trkpt>
      <trkpt lat="59.972437000166" lon="23.434261362146">
        <ele>7.2</ele>
        <time>2014-06-27T15:02:29Z</time>
      </trkpt>
      <trkpt lat="59.972409172258" lon="23.434535198819">
        <ele>7.2</ele>
        <time>2014-06-27T15:02:34Z</time>
      </trkpt>
      <trkpt lat="59.972387463137" lon="23.434637793275">
        <ele>7.2</ele>
        <time>2014-06-27T15:02:36Z</time>
      </trkpt>
      <trkpt lat="59.972326442905" lon="23.434925879178">
        <ele>7.2</ele>
        <time>2014-06-27T15:02:42Z</time>
      </trkpt>
      <trkpt lat="59.972290903649" lon="23.435115310118">
        <ele>7.2</ele>
        <time>2014-06-27T15:02:46Z</time>
      </trkpt>
      <trkpt lat="59.972257795144" lon="23.435307339447">
        <ele>7.2</ele>
        <time>2014-06-27T15:02:50Z</time>
      </trkpt>
      <trkpt lat="59.972153021394" lon="23.435469864488">
        <ele>7.2</ele>
        <time>2014-06-27T15:02:55Z</time>
      </trkpt>
      <trkpt lat="59.972011786379" lon="23.435615625729">
        <ele>7.2</ele>
        <time>2014-06-27T15:03:01Z</time>
      </trkpt>
      <trkpt lat="59.971902318765" lon="23.43573624127">
        <ele>7.2</ele>
        <time>2014-06-27T15:03:06Z</time>
      </trkpt>
      <trkpt lat="59.971762089578" lon="23.435883008339">
        <ele>7.2</ele>
        <time>2014-06-27T15:03:12Z</time>
      </trkpt>
      <trkpt lat="59.971651448498" lon="23.435997253636">
        <ele>7.2</ele>
        <time>2014-06-27T15:03:17Z</time>
      </trkpt>
      <trkpt lat="59.971556397752" lon="23.436098590807">
        <ele>7.2</ele>
        <time>2014-06-27T15:03:21Z</time>
      </trkpt>
      <trkpt lat="59.971412564348" lon="23.43608157555">
        <ele>7.2</ele>
        <time>2014-06-27T15:03:26Z</time>
      </trkpt>
      <trkpt lat="59.971253894981" lon="23.436076462591">
        <ele>7.2</ele>
        <time>2014-06-27T15:03:32Z</time>
      </trkpt>
      <trkpt lat="59.971109642482" lon="23.4360522389">
        <ele>7.2</ele>
        <time>2014-06-27T15:03:37Z</time>
      </trkpt>
      <trkpt lat="59.970994056081" lon="23.436052322719">
        <ele>7.2</ele>
        <time>2014-06-27T15:03:41Z</time>
      </trkpt>
      <trkpt lat="59.970870674513" lon="23.436046203932">
        <ele>7.2</ele>
        <time>2014-06-27T15:03:45Z</time>
      </trkpt>
      <trkpt lat="59.970712256603" lon="23.436046455389">
        <ele>7.2</ele>
        <time>2014-06-27T15:03:51Z</time>
      </trkpt>
      <trkpt lat="59.970536655798" lon="23.436093477848">
        <ele>7.2</ele>
        <time>2014-06-27T15:03:57Z</time>
      </trkpt>
      <trkpt lat="59.970385949236" lon="23.436126251077">
        <ele>7.2</ele>
        <time>2014-06-27T15:04:03Z</time>
      </trkpt>
      <trkpt lat="59.970245720049" lon="23.436178386495">
        <ele>7.2</ele>
        <time>2014-06-27T15:04:08Z</time>
      </trkpt>
      <trkpt lat="59.970081267171" lon="23.436247956265">
        <ele>7.2</ele>
        <time>2014-06-27T15:04:14Z</time>
      </trkpt>
      <trkpt lat="59.969959897259" lon="23.436312832171">
        <ele>7.2</ele>
        <time>2014-06-27T15:04:19Z</time>
      </trkpt>
      <trkpt lat="59.969844646134" lon="23.436322890451">
        <ele>7.2</ele>
        <time>2014-06-27T15:04:24Z</time>
      </trkpt>
      <trkpt lat="59.969748086646" lon="23.436251141387">
        <ele>7.2</ele>
        <time>2014-06-27T15:04:28Z</time>
      </trkpt>
    </trkseg>
  </trk>
</gpx>